<?xml version="1.0" encoding="UTF-8" standalone="no" ?>
<gpx xmlns="http://www.topografix.com/GPX/1/1" xmlns:xsi="http://www.w3.org/2001/XMLSchema-instance" xsi:schemaLocation="http://www.topografix.com/GPX/1/1 http://www.topografix.com/GPX/1/1/gpx.xsd" version="1.1" creator="VisuGPX - https://www.visugpx.com">
  <metadata>
    <name>st Aubin</name>
    <desc><![CDATA[AVF Antony JP Brethes st Aubin]]></desc>
  </metadata>
  <trk>
    <name><![CDATA[avf st Aubin animée]]></name>
    <cmt><![CDATA[21 févr. 2015 10:09:25]]></cmt>
    <trkseg>
      <trkpt lat="48.76457" lon="2.29668">
        <ele>60</ele>
        <time>2015-02-21T09:09:26Z</time>
      </trkpt>
      <trkpt lat="48.76459" lon="2.2966">
        <ele>61</ele>
        <time>2015-02-21T09:09:36Z</time>
      </trkpt>
      <trkpt lat="48.76468" lon="2.29654">
        <ele>62</ele>
        <time>2015-02-21T09:09:45Z</time>
      </trkpt>
      <trkpt lat="48.76473" lon="2.29655">
        <ele>62</ele>
        <time>2015-02-21T09:09:54Z</time>
      </trkpt>
      <trkpt lat="48.76475" lon="2.29657">
        <ele>62</ele>
        <time>2015-02-21T09:09:56Z</time>
      </trkpt>
      <trkpt lat="48.7648" lon="2.29667">
        <ele>60</ele>
        <time>2015-02-21T09:10:40Z</time>
      </trkpt>
      <trkpt lat="48.7648" lon="2.29667">
        <ele>60</ele>
        <time>2015-02-21T09:13:23Z</time>
      </trkpt>
      <trkpt lat="48.76483" lon="2.29675">
        <ele>60</ele>
        <time>2015-02-21T09:13:29Z</time>
      </trkpt>
      <trkpt lat="48.76485" lon="2.2969">
        <ele>60</ele>
        <time>2015-02-21T09:13:39Z</time>
      </trkpt>
      <trkpt lat="48.76483" lon="2.29694">
        <ele>60</ele>
        <time>2015-02-21T09:13:47Z</time>
      </trkpt>
      <trkpt lat="48.76485" lon="2.29698">
        <ele>60</ele>
        <time>2015-02-21T09:14:37Z</time>
      </trkpt>
      <trkpt lat="48.76488" lon="2.29712">
        <ele>60</ele>
        <time>2015-02-21T09:14:50Z</time>
      </trkpt>
      <trkpt lat="48.76495" lon="2.29715">
        <ele>59</ele>
        <time>2015-02-21T09:15:03Z</time>
      </trkpt>
      <trkpt lat="48.76499" lon="2.29719">
        <ele>59</ele>
        <time>2015-02-21T09:15:08Z</time>
      </trkpt>
      <trkpt lat="48.7651" lon="2.29721">
        <ele>59</ele>
        <time>2015-02-21T09:15:18Z</time>
      </trkpt>
      <trkpt lat="48.76551" lon="2.2975">
        <ele>59</ele>
        <time>2015-02-21T09:15:49Z</time>
      </trkpt>
      <trkpt lat="48.76592" lon="2.29777">
        <ele>58</ele>
        <time>2015-02-21T09:16:21Z</time>
      </trkpt>
      <trkpt lat="48.76622" lon="2.29796">
        <ele>57</ele>
        <time>2015-02-21T09:16:54Z</time>
      </trkpt>
      <trkpt lat="48.76664" lon="2.29821">
        <ele>56</ele>
        <time>2015-02-21T09:17:31Z</time>
      </trkpt>
      <trkpt lat="48.76709" lon="2.29822">
        <ele>56</ele>
        <time>2015-02-21T09:18:03Z</time>
      </trkpt>
      <trkpt lat="48.76758" lon="2.29809">
        <ele>56</ele>
        <time>2015-02-21T09:18:35Z</time>
      </trkpt>
      <trkpt lat="48.76762" lon="2.29806">
        <ele>56</ele>
        <time>2015-02-21T09:18:40Z</time>
      </trkpt>
      <trkpt lat="48.76767" lon="2.29793">
        <ele>56</ele>
        <time>2015-02-21T09:18:48Z</time>
      </trkpt>
      <trkpt lat="48.76785" lon="2.29781">
        <ele>56</ele>
        <time>2015-02-21T09:19:03Z</time>
      </trkpt>
      <trkpt lat="48.76826" lon="2.29783">
        <ele>56</ele>
        <time>2015-02-21T09:19:41Z</time>
      </trkpt>
      <trkpt lat="48.76866" lon="2.29768">
        <ele>56</ele>
        <time>2015-02-21T09:20:14Z</time>
      </trkpt>
      <trkpt lat="48.76904" lon="2.29751">
        <ele>56</ele>
        <time>2015-02-21T09:20:44Z</time>
      </trkpt>
      <trkpt lat="48.76908" lon="2.29743">
        <ele>56</ele>
        <time>2015-02-21T09:20:48Z</time>
      </trkpt>
      <trkpt lat="48.76928" lon="2.29679">
        <ele>56</ele>
        <time>2015-02-21T09:21:21Z</time>
      </trkpt>
      <trkpt lat="48.7693" lon="2.29672">
        <ele>56</ele>
        <time>2015-02-21T09:21:25Z</time>
      </trkpt>
      <trkpt lat="48.76948" lon="2.29617">
        <ele>56</ele>
        <time>2015-02-21T09:21:58Z</time>
      </trkpt>
      <trkpt lat="48.76952" lon="2.29614">
        <ele>56</ele>
        <time>2015-02-21T09:22:03Z</time>
      </trkpt>
      <trkpt lat="48.76955" lon="2.29608">
        <ele>56</ele>
        <time>2015-02-21T09:22:07Z</time>
      </trkpt>
      <trkpt lat="48.7697" lon="2.29552">
        <ele>55</ele>
        <time>2015-02-21T09:22:39Z</time>
      </trkpt>
      <trkpt lat="48.76996" lon="2.29504">
        <ele>55</ele>
        <time>2015-02-21T09:23:10Z</time>
      </trkpt>
      <trkpt lat="48.76998" lon="2.29497">
        <ele>55</ele>
        <time>2015-02-21T09:23:14Z</time>
      </trkpt>
      <trkpt lat="48.76999" lon="2.29483">
        <ele>54</ele>
        <time>2015-02-21T09:23:22Z</time>
      </trkpt>
      <trkpt lat="48.77014" lon="2.2946">
        <ele>55</ele>
        <time>2015-02-21T09:23:39Z</time>
      </trkpt>
      <trkpt lat="48.77018" lon="2.29456">
        <ele>55</ele>
        <time>2015-02-21T09:23:42Z</time>
      </trkpt>
      <trkpt lat="48.77029" lon="2.29451">
        <ele>55</ele>
        <time>2015-02-21T09:23:50Z</time>
      </trkpt>
      <trkpt lat="48.77039" lon="2.29437">
        <ele>55</ele>
        <time>2015-02-21T09:24:03Z</time>
      </trkpt>
      <trkpt lat="48.77041" lon="2.2943">
        <ele>54</ele>
        <time>2015-02-21T09:24:09Z</time>
      </trkpt>
      <trkpt lat="48.77045" lon="2.29426">
        <ele>54</ele>
        <time>2015-02-21T09:24:27Z</time>
      </trkpt>
      <trkpt lat="48.7705" lon="2.29427">
        <ele>54</ele>
        <time>2015-02-21T09:24:33Z</time>
      </trkpt>
      <trkpt lat="48.77064" lon="2.29441">
        <ele>55</ele>
        <time>2015-02-21T09:24:58Z</time>
      </trkpt>
      <trkpt lat="48.77118" lon="2.29469">
        <ele>55</ele>
        <time>2015-02-21T09:25:29Z</time>
      </trkpt>
      <trkpt lat="48.77152" lon="2.29497">
        <ele>56</ele>
        <time>2015-02-21T09:26:02Z</time>
      </trkpt>
      <trkpt lat="48.77153" lon="2.29511">
        <ele>56</ele>
        <time>2015-02-21T09:26:12Z</time>
      </trkpt>
      <trkpt lat="48.77163" lon="2.29515">
        <ele>56</ele>
        <time>2015-02-21T09:26:19Z</time>
      </trkpt>
      <trkpt lat="48.77199" lon="2.29537">
        <ele>56</ele>
        <time>2015-02-21T09:26:52Z</time>
      </trkpt>
      <trkpt lat="48.7721" lon="2.29541">
        <ele>56</ele>
        <time>2015-02-21T09:26:57Z</time>
      </trkpt>
      <trkpt lat="48.77232" lon="2.29571">
        <ele>56</ele>
        <time>2015-02-21T09:27:13Z</time>
      </trkpt>
      <trkpt lat="48.77244" lon="2.29565">
        <ele>57</ele>
        <time>2015-02-21T09:27:32Z</time>
      </trkpt>
      <trkpt lat="48.77263" lon="2.29561">
        <ele>59</ele>
        <time>2015-02-21T09:27:43Z</time>
      </trkpt>
      <trkpt lat="48.77289" lon="2.29544">
        <ele>65</ele>
        <time>2015-02-21T09:28:14Z</time>
      </trkpt>
      <trkpt lat="48.77293" lon="2.2954">
        <ele>66</ele>
        <time>2015-02-21T09:28:20Z</time>
      </trkpt>
      <trkpt lat="48.77302" lon="2.29542">
        <ele>68</ele>
        <time>2015-02-21T09:28:29Z</time>
      </trkpt>
      <trkpt lat="48.77311" lon="2.29533">
        <ele>69</ele>
        <time>2015-02-21T09:28:37Z</time>
      </trkpt>
      <trkpt lat="48.77313" lon="2.2952">
        <ele>69</ele>
        <time>2015-02-21T09:28:45Z</time>
      </trkpt>
      <trkpt lat="48.77309" lon="2.29458">
        <ele>68</ele>
        <time>2015-02-21T09:29:16Z</time>
      </trkpt>
      <trkpt lat="48.77302" lon="2.29393">
        <ele>66</ele>
        <time>2015-02-21T09:29:48Z</time>
      </trkpt>
      <trkpt lat="48.77289" lon="2.29359">
        <ele>66</ele>
        <time>2015-02-21T09:30:07Z</time>
      </trkpt>
      <trkpt lat="48.77289" lon="2.29351">
        <ele>65</ele>
        <time>2015-02-21T09:30:12Z</time>
      </trkpt>
      <trkpt lat="48.77284" lon="2.29327">
        <ele>65</ele>
        <time>2015-02-21T09:30:23Z</time>
      </trkpt>
      <trkpt lat="48.77284" lon="2.29321">
        <ele>65</ele>
        <time>2015-02-21T09:30:27Z</time>
      </trkpt>
      <trkpt lat="48.77281" lon="2.29264">
        <ele>64</ele>
        <time>2015-02-21T09:30:57Z</time>
      </trkpt>
      <trkpt lat="48.77272" lon="2.29202">
        <ele>63</ele>
        <time>2015-02-21T09:31:28Z</time>
      </trkpt>
      <trkpt lat="48.7726" lon="2.29134">
        <ele>63</ele>
        <time>2015-02-21T09:31:59Z</time>
      </trkpt>
      <trkpt lat="48.7725" lon="2.29083">
        <ele>64</ele>
        <time>2015-02-21T09:32:30Z</time>
      </trkpt>
      <trkpt lat="48.77243" lon="2.29024">
        <ele>64</ele>
        <time>2015-02-21T09:33:01Z</time>
      </trkpt>
      <trkpt lat="48.77242" lon="2.28968">
        <ele>65</ele>
        <time>2015-02-21T09:33:34Z</time>
      </trkpt>
      <trkpt lat="48.77234" lon="2.2891">
        <ele>68</ele>
        <time>2015-02-21T09:34:06Z</time>
      </trkpt>
      <trkpt lat="48.77243" lon="2.28859">
        <ele>70</ele>
        <time>2015-02-21T09:34:35Z</time>
      </trkpt>
      <trkpt lat="48.77272" lon="2.2882">
        <ele>71</ele>
        <time>2015-02-21T09:35:06Z</time>
      </trkpt>
      <trkpt lat="48.77271" lon="2.28813">
        <ele>71</ele>
        <time>2015-02-21T09:35:10Z</time>
      </trkpt>
      <trkpt lat="48.77252" lon="2.28738">
        <ele>73</ele>
        <time>2015-02-21T09:35:43Z</time>
      </trkpt>
      <trkpt lat="48.77243" lon="2.28679">
        <ele>76</ele>
        <time>2015-02-21T09:36:14Z</time>
      </trkpt>
      <trkpt lat="48.7724" lon="2.28642">
        <ele>77</ele>
        <time>2015-02-21T09:36:35Z</time>
      </trkpt>
      <trkpt lat="48.77244" lon="2.28638">
        <ele>77</ele>
        <time>2015-02-21T09:36:41Z</time>
      </trkpt>
      <trkpt lat="48.77249" lon="2.28638">
        <ele>77</ele>
        <time>2015-02-21T09:36:46Z</time>
      </trkpt>
      <trkpt lat="48.77263" lon="2.28637">
        <ele>76</ele>
        <time>2015-02-21T09:36:59Z</time>
      </trkpt>
      <trkpt lat="48.77264" lon="2.2863">
        <ele>76</ele>
        <time>2015-02-21T09:37:04Z</time>
      </trkpt>
      <trkpt lat="48.77266" lon="2.28623">
        <ele>77</ele>
        <time>2015-02-21T09:37:08Z</time>
      </trkpt>
      <trkpt lat="48.77265" lon="2.28597">
        <ele>77</ele>
        <time>2015-02-21T09:37:22Z</time>
      </trkpt>
      <trkpt lat="48.77272" lon="2.28585">
        <ele>77</ele>
        <time>2015-02-21T09:37:35Z</time>
      </trkpt>
      <trkpt lat="48.77274" lon="2.28578">
        <ele>78</ele>
        <time>2015-02-21T09:37:42Z</time>
      </trkpt>
      <trkpt lat="48.77278" lon="2.28573">
        <ele>79</ele>
        <time>2015-02-21T09:37:51Z</time>
      </trkpt>
      <trkpt lat="48.77278" lon="2.28566">
        <ele>80</ele>
        <time>2015-02-21T09:37:56Z</time>
      </trkpt>
      <trkpt lat="48.77278" lon="2.2855">
        <ele>82</ele>
        <time>2015-02-21T09:38:11Z</time>
      </trkpt>
      <trkpt lat="48.77274" lon="2.28547">
        <ele>82</ele>
        <time>2015-02-21T09:38:27Z</time>
      </trkpt>
      <trkpt lat="48.77246" lon="2.28557">
        <ele>82</ele>
        <time>2015-02-21T09:38:57Z</time>
      </trkpt>
      <trkpt lat="48.77207" lon="2.28566">
        <ele>82</ele>
        <time>2015-02-21T09:39:31Z</time>
      </trkpt>
      <trkpt lat="48.77174" lon="2.28583">
        <ele>81</ele>
        <time>2015-02-21T09:40:03Z</time>
      </trkpt>
      <trkpt lat="48.77138" lon="2.28578">
        <ele>82</ele>
        <time>2015-02-21T09:40:33Z</time>
      </trkpt>
      <trkpt lat="48.77132" lon="2.28566">
        <ele>82</ele>
        <time>2015-02-21T09:40:43Z</time>
      </trkpt>
      <trkpt lat="48.7711" lon="2.28522">
        <ele>83</ele>
        <time>2015-02-21T09:41:16Z</time>
      </trkpt>
      <trkpt lat="48.77106" lon="2.28519">
        <ele>83</ele>
        <time>2015-02-21T09:41:21Z</time>
      </trkpt>
      <trkpt lat="48.77101" lon="2.28518">
        <ele>83</ele>
        <time>2015-02-21T09:41:30Z</time>
      </trkpt>
      <trkpt lat="48.771" lon="2.28511">
        <ele>83</ele>
        <time>2015-02-21T09:41:38Z</time>
      </trkpt>
      <trkpt lat="48.77098" lon="2.28507">
        <ele>83</ele>
        <time>2015-02-21T09:42:02Z</time>
      </trkpt>
      <trkpt lat="48.77091" lon="2.28506">
        <ele>83</ele>
        <time>2015-02-21T09:42:29Z</time>
      </trkpt>
      <trkpt lat="48.77087" lon="2.28502">
        <ele>83</ele>
        <time>2015-02-21T09:42:35Z</time>
      </trkpt>
      <trkpt lat="48.77052" lon="2.28501">
        <ele>85</ele>
        <time>2015-02-21T09:43:05Z</time>
      </trkpt>
      <trkpt lat="48.77012" lon="2.28498">
        <ele>85</ele>
        <time>2015-02-21T09:43:37Z</time>
      </trkpt>
      <trkpt lat="48.76972" lon="2.28497">
        <ele>85</ele>
        <time>2015-02-21T09:44:10Z</time>
      </trkpt>
      <trkpt lat="48.76937" lon="2.28493">
        <ele>86</ele>
        <time>2015-02-21T09:44:41Z</time>
      </trkpt>
      <trkpt lat="48.76907" lon="2.28494">
        <ele>85</ele>
        <time>2015-02-21T09:45:04Z</time>
      </trkpt>
      <trkpt lat="48.76903" lon="2.285">
        <ele>85</ele>
        <time>2015-02-21T09:45:09Z</time>
      </trkpt>
      <trkpt lat="48.76888" lon="2.28501">
        <ele>85</ele>
        <time>2015-02-21T09:45:22Z</time>
      </trkpt>
      <trkpt lat="48.76874" lon="2.28501">
        <ele>86</ele>
        <time>2015-02-21T09:45:34Z</time>
      </trkpt>
      <trkpt lat="48.7687" lon="2.28497">
        <ele>86</ele>
        <time>2015-02-21T09:45:38Z</time>
      </trkpt>
      <trkpt lat="48.76836" lon="2.28471">
        <ele>87</ele>
        <time>2015-02-21T09:46:10Z</time>
      </trkpt>
      <trkpt lat="48.76821" lon="2.28475">
        <ele>87</ele>
        <time>2015-02-21T09:46:22Z</time>
      </trkpt>
      <trkpt lat="48.76816" lon="2.28472">
        <ele>87</ele>
        <time>2015-02-21T09:46:26Z</time>
      </trkpt>
      <trkpt lat="48.76776" lon="2.28468">
        <ele>88</ele>
        <time>2015-02-21T09:46:59Z</time>
      </trkpt>
      <trkpt lat="48.76772" lon="2.28464">
        <ele>88</ele>
        <time>2015-02-21T09:47:02Z</time>
      </trkpt>
      <trkpt lat="48.76767" lon="2.28463">
        <ele>88</ele>
        <time>2015-02-21T09:47:05Z</time>
      </trkpt>
      <trkpt lat="48.76753" lon="2.28471">
        <ele>88</ele>
        <time>2015-02-21T09:47:17Z</time>
      </trkpt>
      <trkpt lat="48.76719" lon="2.28471">
        <ele>88</ele>
        <time>2015-02-21T09:47:49Z</time>
      </trkpt>
      <trkpt lat="48.76669" lon="2.28468">
        <ele>87</ele>
        <time>2015-02-21T09:48:20Z</time>
      </trkpt>
      <trkpt lat="48.76631" lon="2.2847">
        <ele>87</ele>
        <time>2015-02-21T09:48:51Z</time>
      </trkpt>
      <trkpt lat="48.7662" lon="2.28472">
        <ele>87</ele>
        <time>2015-02-21T09:48:59Z</time>
      </trkpt>
      <trkpt lat="48.76584" lon="2.28465">
        <ele>87</ele>
        <time>2015-02-21T09:49:28Z</time>
      </trkpt>
      <trkpt lat="48.7658" lon="2.2847">
        <ele>87</ele>
        <time>2015-02-21T09:49:33Z</time>
      </trkpt>
      <trkpt lat="48.76577" lon="2.28485">
        <ele>87</ele>
        <time>2015-02-21T09:49:42Z</time>
      </trkpt>
      <trkpt lat="48.76573" lon="2.28489">
        <ele>87</ele>
        <time>2015-02-21T09:49:46Z</time>
      </trkpt>
      <trkpt lat="48.76568" lon="2.28492">
        <ele>87</ele>
        <time>2015-02-21T09:49:49Z</time>
      </trkpt>
      <trkpt lat="48.76533" lon="2.28485">
        <ele>84</ele>
        <time>2015-02-21T09:50:19Z</time>
      </trkpt>
      <trkpt lat="48.76491" lon="2.28496">
        <ele>83</ele>
        <time>2015-02-21T09:50:51Z</time>
      </trkpt>
      <trkpt lat="48.76451" lon="2.28491">
        <ele>82</ele>
        <time>2015-02-21T09:51:23Z</time>
      </trkpt>
      <trkpt lat="48.76437" lon="2.28494">
        <ele>81</ele>
        <time>2015-02-21T09:51:36Z</time>
      </trkpt>
      <trkpt lat="48.76432" lon="2.28491">
        <ele>81</ele>
        <time>2015-02-21T09:51:40Z</time>
      </trkpt>
      <trkpt lat="48.76412" lon="2.28497">
        <ele>81</ele>
        <time>2015-02-21T09:51:57Z</time>
      </trkpt>
      <trkpt lat="48.76409" lon="2.28497">
        <ele>82</ele>
        <time>2015-02-21T09:52:04Z</time>
      </trkpt>
      <trkpt lat="48.76399" lon="2.28502">
        <ele>83</ele>
        <time>2015-02-21T09:52:19Z</time>
      </trkpt>
      <trkpt lat="48.76357" lon="2.28505">
        <ele>84</ele>
        <time>2015-02-21T09:52:52Z</time>
      </trkpt>
      <trkpt lat="48.76323" lon="2.28493">
        <ele>83</ele>
        <time>2015-02-21T09:53:23Z</time>
      </trkpt>
      <trkpt lat="48.76288" lon="2.28501">
        <ele>83</ele>
        <time>2015-02-21T09:53:54Z</time>
      </trkpt>
      <trkpt lat="48.76278" lon="2.28499">
        <ele>83</ele>
        <time>2015-02-21T09:54:01Z</time>
      </trkpt>
      <trkpt lat="48.76268" lon="2.28502">
        <ele>83</ele>
        <time>2015-02-21T09:54:09Z</time>
      </trkpt>
      <trkpt lat="48.76261" lon="2.28511">
        <ele>82</ele>
        <time>2015-02-21T09:54:17Z</time>
      </trkpt>
      <trkpt lat="48.76252" lon="2.2851">
        <ele>81</ele>
        <time>2015-02-21T09:54:23Z</time>
      </trkpt>
      <trkpt lat="48.76243" lon="2.28505">
        <ele>80</ele>
        <time>2015-02-21T09:54:34Z</time>
      </trkpt>
      <trkpt lat="48.76216" lon="2.28508">
        <ele>78</ele>
        <time>2015-02-21T09:54:56Z</time>
      </trkpt>
      <trkpt lat="48.76208" lon="2.285">
        <ele>78</ele>
        <time>2015-02-21T09:55:02Z</time>
      </trkpt>
      <trkpt lat="48.76182" lon="2.28487">
        <ele>81</ele>
        <time>2015-02-21T09:55:32Z</time>
      </trkpt>
      <trkpt lat="48.76157" lon="2.28479">
        <ele>83</ele>
        <time>2015-02-21T09:55:53Z</time>
      </trkpt>
      <trkpt lat="48.76153" lon="2.28477">
        <ele>83</ele>
        <time>2015-02-21T09:55:56Z</time>
      </trkpt>
      <trkpt lat="48.76142" lon="2.28482">
        <ele>83</ele>
        <time>2015-02-21T09:56:10Z</time>
      </trkpt>
      <trkpt lat="48.76122" lon="2.28479">
        <ele>83</ele>
        <time>2015-02-21T09:56:21Z</time>
      </trkpt>
      <trkpt lat="48.76114" lon="2.28485">
        <ele>81</ele>
        <time>2015-02-21T09:56:33Z</time>
      </trkpt>
      <trkpt lat="48.76096" lon="2.28499">
        <ele>81</ele>
        <time>2015-02-21T09:56:51Z</time>
      </trkpt>
      <trkpt lat="48.76046" lon="2.28487">
        <ele>81</ele>
        <time>2015-02-21T09:57:22Z</time>
      </trkpt>
      <trkpt lat="48.76032" lon="2.28487">
        <ele>81</ele>
        <time>2015-02-21T09:57:44Z</time>
      </trkpt>
      <trkpt lat="48.7602" lon="2.28476">
        <ele>82</ele>
        <time>2015-02-21T09:57:57Z</time>
      </trkpt>
      <trkpt lat="48.76016" lon="2.28464">
        <ele>83</ele>
        <time>2015-02-21T09:58:18Z</time>
      </trkpt>
      <trkpt lat="48.76018" lon="2.28457">
        <ele>84</ele>
        <time>2015-02-21T09:58:24Z</time>
      </trkpt>
      <trkpt lat="48.76018" lon="2.2845">
        <ele>85</ele>
        <time>2015-02-21T09:58:30Z</time>
      </trkpt>
      <trkpt lat="48.76015" lon="2.28445">
        <ele>85</ele>
        <time>2015-02-21T09:58:37Z</time>
      </trkpt>
      <trkpt lat="48.76009" lon="2.28446">
        <ele>85</ele>
        <time>2015-02-21T09:58:43Z</time>
      </trkpt>
      <trkpt lat="48.76001" lon="2.28451">
        <ele>86</ele>
        <time>2015-02-21T09:58:54Z</time>
      </trkpt>
      <trkpt lat="48.75963" lon="2.2846">
        <ele>88</ele>
        <time>2015-02-21T09:59:26Z</time>
      </trkpt>
      <trkpt lat="48.75954" lon="2.2846">
        <ele>88</ele>
        <time>2015-02-21T09:59:37Z</time>
      </trkpt>
      <trkpt lat="48.75949" lon="2.28467">
        <ele>88</ele>
        <time>2015-02-21T09:59:50Z</time>
      </trkpt>
      <trkpt lat="48.75941" lon="2.28498">
        <ele>88</ele>
        <time>2015-02-21T10:00:22Z</time>
      </trkpt>
      <trkpt lat="48.7594" lon="2.28514">
        <ele>88</ele>
        <time>2015-02-21T10:00:34Z</time>
      </trkpt>
      <trkpt lat="48.75935" lon="2.28527">
        <ele>88</ele>
        <time>2015-02-21T10:00:49Z</time>
      </trkpt>
      <trkpt lat="48.75926" lon="2.28529">
        <ele>87</ele>
        <time>2015-02-21T10:01:10Z</time>
      </trkpt>
      <trkpt lat="48.75918" lon="2.28525">
        <ele>87</ele>
        <time>2015-02-21T10:01:19Z</time>
      </trkpt>
      <trkpt lat="48.7589" lon="2.28505">
        <ele>85</ele>
        <time>2015-02-21T10:01:47Z</time>
      </trkpt>
      <trkpt lat="48.75843" lon="2.2849">
        <ele>85</ele>
        <time>2015-02-21T10:02:23Z</time>
      </trkpt>
      <trkpt lat="48.75804" lon="2.28488">
        <ele>85</ele>
        <time>2015-02-21T10:02:54Z</time>
      </trkpt>
      <trkpt lat="48.75795" lon="2.2849">
        <ele>85</ele>
        <time>2015-02-21T10:03:02Z</time>
      </trkpt>
      <trkpt lat="48.75769" lon="2.28505">
        <ele>87</ele>
        <time>2015-02-21T10:03:25Z</time>
      </trkpt>
      <trkpt lat="48.75729" lon="2.28496">
        <ele>87</ele>
        <time>2015-02-21T10:03:57Z</time>
      </trkpt>
      <trkpt lat="48.75691" lon="2.28496">
        <ele>87</ele>
        <time>2015-02-21T10:04:31Z</time>
      </trkpt>
      <trkpt lat="48.75652" lon="2.28483">
        <ele>86</ele>
        <time>2015-02-21T10:05:04Z</time>
      </trkpt>
      <trkpt lat="48.75642" lon="2.28486">
        <ele>86</ele>
        <time>2015-02-21T10:05:14Z</time>
      </trkpt>
      <trkpt lat="48.75605" lon="2.28476">
        <ele>85</ele>
        <time>2015-02-21T10:05:47Z</time>
      </trkpt>
      <trkpt lat="48.75577" lon="2.28457">
        <ele>84</ele>
        <time>2015-02-21T10:06:22Z</time>
      </trkpt>
      <trkpt lat="48.75547" lon="2.28444">
        <ele>84</ele>
        <time>2015-02-21T10:06:55Z</time>
      </trkpt>
      <trkpt lat="48.75508" lon="2.28423">
        <ele>84</ele>
        <time>2015-02-21T10:07:26Z</time>
      </trkpt>
      <trkpt lat="48.75499" lon="2.2842">
        <ele>84</ele>
        <time>2015-02-21T10:07:32Z</time>
      </trkpt>
      <trkpt lat="48.75495" lon="2.28415">
        <ele>84</ele>
        <time>2015-02-21T10:07:36Z</time>
      </trkpt>
      <trkpt lat="48.75483" lon="2.2841">
        <ele>84</ele>
        <time>2015-02-21T10:08:14Z</time>
      </trkpt>
      <trkpt lat="48.75481" lon="2.28408">
        <ele>84</ele>
        <time>2015-02-21T10:11:35Z</time>
      </trkpt>
      <trkpt lat="48.75478" lon="2.28404">
        <ele>84</ele>
        <time>2015-02-21T10:11:41Z</time>
      </trkpt>
      <trkpt lat="48.75468" lon="2.28403">
        <ele>84</ele>
        <time>2015-02-21T10:11:52Z</time>
      </trkpt>
      <trkpt lat="48.75463" lon="2.28405">
        <ele>84</ele>
        <time>2015-02-21T10:11:56Z</time>
      </trkpt>
      <trkpt lat="48.75444" lon="2.28397">
        <ele>84</ele>
        <time>2015-02-21T10:12:11Z</time>
      </trkpt>
      <trkpt lat="48.75405" lon="2.28378">
        <ele>84</ele>
        <time>2015-02-21T10:12:42Z</time>
      </trkpt>
      <trkpt lat="48.75395" lon="2.28375">
        <ele>84</ele>
        <time>2015-02-21T10:12:48Z</time>
      </trkpt>
      <trkpt lat="48.75368" lon="2.28354">
        <ele>83</ele>
        <time>2015-02-21T10:13:09Z</time>
      </trkpt>
      <trkpt lat="48.75363" lon="2.28356">
        <ele>83</ele>
        <time>2015-02-21T10:13:14Z</time>
      </trkpt>
      <trkpt lat="48.75332" lon="2.28347">
        <ele>83</ele>
        <time>2015-02-21T10:13:39Z</time>
      </trkpt>
      <trkpt lat="48.75295" lon="2.28325">
        <ele>83</ele>
        <time>2015-02-21T10:14:10Z</time>
      </trkpt>
      <trkpt lat="48.75252" lon="2.283">
        <ele>82</ele>
        <time>2015-02-21T10:14:43Z</time>
      </trkpt>
      <trkpt lat="48.75214" lon="2.2828">
        <ele>80</ele>
        <time>2015-02-21T10:15:15Z</time>
      </trkpt>
      <trkpt lat="48.75166" lon="2.28257">
        <ele>79</ele>
        <time>2015-02-21T10:15:54Z</time>
      </trkpt>
      <trkpt lat="48.75123" lon="2.28224">
        <ele>78</ele>
        <time>2015-02-21T10:16:38Z</time>
      </trkpt>
      <trkpt lat="48.75113" lon="2.28225">
        <ele>77</ele>
        <time>2015-02-21T10:16:47Z</time>
      </trkpt>
      <trkpt lat="48.75107" lon="2.28235">
        <ele>75</ele>
        <time>2015-02-21T10:16:58Z</time>
      </trkpt>
      <trkpt lat="48.75089" lon="2.28246">
        <ele>72</ele>
        <time>2015-02-21T10:17:17Z</time>
      </trkpt>
      <trkpt lat="48.75046" lon="2.28275">
        <ele>71</ele>
        <time>2015-02-21T10:17:52Z</time>
      </trkpt>
      <trkpt lat="48.75037" lon="2.28269">
        <ele>69</ele>
        <time>2015-02-21T10:18:09Z</time>
      </trkpt>
      <trkpt lat="48.7503" lon="2.28259">
        <ele>69</ele>
        <time>2015-02-21T10:18:17Z</time>
      </trkpt>
      <trkpt lat="48.75015" lon="2.28241">
        <ele>66</ele>
        <time>2015-02-21T10:18:31Z</time>
      </trkpt>
      <trkpt lat="48.75005" lon="2.28241">
        <ele>65</ele>
        <time>2015-02-21T10:18:41Z</time>
      </trkpt>
      <trkpt lat="48.74998" lon="2.28251">
        <ele>65</ele>
        <time>2015-02-21T10:18:46Z</time>
      </trkpt>
      <trkpt lat="48.74995" lon="2.28258">
        <ele>65</ele>
        <time>2015-02-21T10:18:48Z</time>
      </trkpt>
      <trkpt lat="48.74961" lon="2.28289">
        <ele>64</ele>
        <time>2015-02-21T10:19:25Z</time>
      </trkpt>
      <trkpt lat="48.74957" lon="2.28302">
        <ele>64</ele>
        <time>2015-02-21T10:19:32Z</time>
      </trkpt>
      <trkpt lat="48.74932" lon="2.28322">
        <ele>62</ele>
        <time>2015-02-21T10:20:03Z</time>
      </trkpt>
      <trkpt lat="48.74907" lon="2.28363">
        <ele>62</ele>
        <time>2015-02-21T10:20:40Z</time>
      </trkpt>
      <trkpt lat="48.74882" lon="2.28378">
        <ele>62</ele>
        <time>2015-02-21T10:21:02Z</time>
      </trkpt>
      <trkpt lat="48.74877" lon="2.28391">
        <ele>62</ele>
        <time>2015-02-21T10:21:10Z</time>
      </trkpt>
      <trkpt lat="48.74877" lon="2.28408">
        <ele>62</ele>
        <time>2015-02-21T10:21:20Z</time>
      </trkpt>
      <trkpt lat="48.74872" lon="2.28412">
        <ele>62</ele>
        <time>2015-02-21T10:21:25Z</time>
      </trkpt>
      <trkpt lat="48.74867" lon="2.28409">
        <ele>62</ele>
        <time>2015-02-21T10:21:30Z</time>
      </trkpt>
      <trkpt lat="48.74862" lon="2.28411">
        <ele>62</ele>
        <time>2015-02-21T10:21:35Z</time>
      </trkpt>
      <trkpt lat="48.74852" lon="2.28429">
        <ele>61</ele>
        <time>2015-02-21T10:21:49Z</time>
      </trkpt>
      <trkpt lat="48.74848" lon="2.28431">
        <ele>61</ele>
        <time>2015-02-21T10:21:54Z</time>
      </trkpt>
      <trkpt lat="48.74844" lon="2.28437">
        <ele>61</ele>
        <time>2015-02-21T10:21:59Z</time>
      </trkpt>
      <trkpt lat="48.74824" lon="2.28472">
        <ele>60</ele>
        <time>2015-02-21T10:22:23Z</time>
      </trkpt>
      <trkpt lat="48.74805" lon="2.28471">
        <ele>59</ele>
        <time>2015-02-21T10:22:48Z</time>
      </trkpt>
      <trkpt lat="48.74798" lon="2.28482">
        <ele>57</ele>
        <time>2015-02-21T10:22:55Z</time>
      </trkpt>
      <trkpt lat="48.74765" lon="2.28513">
        <ele>56</ele>
        <time>2015-02-21T10:23:31Z</time>
      </trkpt>
      <trkpt lat="48.74762" lon="2.28528">
        <ele>56</ele>
        <time>2015-02-21T10:23:46Z</time>
      </trkpt>
      <trkpt lat="48.74754" lon="2.28536">
        <ele>56</ele>
        <time>2015-02-21T10:23:54Z</time>
      </trkpt>
      <trkpt lat="48.74744" lon="2.28537">
        <ele>55</ele>
        <time>2015-02-21T10:24:00Z</time>
      </trkpt>
      <trkpt lat="48.74733" lon="2.28554">
        <ele>55</ele>
        <time>2015-02-21T10:24:12Z</time>
      </trkpt>
      <trkpt lat="48.74728" lon="2.28565">
        <ele>54</ele>
        <time>2015-02-21T10:24:21Z</time>
      </trkpt>
      <trkpt lat="48.74705" lon="2.28591">
        <ele>53</ele>
        <time>2015-02-21T10:24:48Z</time>
      </trkpt>
      <trkpt lat="48.74701" lon="2.28604">
        <ele>53</ele>
        <time>2015-02-21T10:25:12Z</time>
      </trkpt>
      <trkpt lat="48.74686" lon="2.28622">
        <ele>53</ele>
        <time>2015-02-21T10:25:31Z</time>
      </trkpt>
      <trkpt lat="48.74677" lon="2.28626">
        <ele>53</ele>
        <time>2015-02-21T10:25:39Z</time>
      </trkpt>
      <trkpt lat="48.74658" lon="2.2866">
        <ele>52</ele>
        <time>2015-02-21T10:26:02Z</time>
      </trkpt>
      <trkpt lat="48.74633" lon="2.28672">
        <ele>50</ele>
        <time>2015-02-21T10:26:38Z</time>
      </trkpt>
      <trkpt lat="48.74626" lon="2.2867">
        <ele>50</ele>
        <time>2015-02-21T10:27:18Z</time>
      </trkpt>
      <trkpt lat="48.74612" lon="2.28647">
        <ele>50</ele>
        <time>2015-02-21T10:27:35Z</time>
      </trkpt>
      <trkpt lat="48.74609" lon="2.28632">
        <ele>50</ele>
        <time>2015-02-21T10:27:44Z</time>
      </trkpt>
      <trkpt lat="48.74605" lon="2.28629">
        <ele>50</ele>
        <time>2015-02-21T10:27:49Z</time>
      </trkpt>
      <trkpt lat="48.746" lon="2.28626">
        <ele>50</ele>
        <time>2015-02-21T10:27:55Z</time>
      </trkpt>
      <trkpt lat="48.74598" lon="2.28617">
        <ele>50</ele>
        <time>2015-02-21T10:28:02Z</time>
      </trkpt>
      <trkpt lat="48.74599" lon="2.28585">
        <ele>50</ele>
        <time>2015-02-21T10:28:21Z</time>
      </trkpt>
      <trkpt lat="48.74595" lon="2.28581">
        <ele>50</ele>
        <time>2015-02-21T10:28:27Z</time>
      </trkpt>
      <trkpt lat="48.74565" lon="2.28537">
        <ele>50</ele>
        <time>2015-02-21T10:29:00Z</time>
      </trkpt>
      <trkpt lat="48.74556" lon="2.28507">
        <ele>50</ele>
        <time>2015-02-21T10:29:17Z</time>
      </trkpt>
      <trkpt lat="48.74556" lon="2.285">
        <ele>50</ele>
        <time>2015-02-21T10:29:20Z</time>
      </trkpt>
      <trkpt lat="48.74554" lon="2.28497">
        <ele>50</ele>
        <time>2015-02-21T10:29:26Z</time>
      </trkpt>
      <trkpt lat="48.7455" lon="2.28501">
        <ele>50</ele>
        <time>2015-02-21T10:29:31Z</time>
      </trkpt>
      <trkpt lat="48.74534" lon="2.28505">
        <ele>50</ele>
        <time>2015-02-21T10:29:44Z</time>
      </trkpt>
      <trkpt lat="48.74506" lon="2.28544">
        <ele>50</ele>
        <time>2015-02-21T10:30:20Z</time>
      </trkpt>
      <trkpt lat="48.74498" lon="2.28538">
        <ele>51</ele>
        <time>2015-02-21T10:30:28Z</time>
      </trkpt>
      <trkpt lat="48.74487" lon="2.28523">
        <ele>50</ele>
        <time>2015-02-21T10:30:41Z</time>
      </trkpt>
      <trkpt lat="48.7449" lon="2.28529">
        <ele>51</ele>
        <time>2015-02-21T10:31:52Z</time>
      </trkpt>
      <trkpt lat="48.74486" lon="2.28528">
        <ele>51</ele>
        <time>2015-02-21T10:33:53Z</time>
      </trkpt>
      <trkpt lat="48.74482" lon="2.2853">
        <ele>51</ele>
        <time>2015-02-21T10:34:00Z</time>
      </trkpt>
      <trkpt lat="48.74452" lon="2.28562">
        <ele>51</ele>
        <time>2015-02-21T10:34:33Z</time>
      </trkpt>
      <trkpt lat="48.74427" lon="2.28594">
        <ele>51</ele>
        <time>2015-02-21T10:35:03Z</time>
      </trkpt>
      <trkpt lat="48.74424" lon="2.28599">
        <ele>51</ele>
        <time>2015-02-21T10:35:07Z</time>
      </trkpt>
      <trkpt lat="48.74419" lon="2.28601">
        <ele>51</ele>
        <time>2015-02-21T10:35:12Z</time>
      </trkpt>
      <trkpt lat="48.74411" lon="2.28597">
        <ele>51</ele>
        <time>2015-02-21T10:35:26Z</time>
      </trkpt>
      <trkpt lat="48.74406" lon="2.28601">
        <ele>51</ele>
        <time>2015-02-21T10:35:33Z</time>
      </trkpt>
      <trkpt lat="48.74396" lon="2.28601">
        <ele>51</ele>
        <time>2015-02-21T10:35:44Z</time>
      </trkpt>
      <trkpt lat="48.74366" lon="2.28572">
        <ele>51</ele>
        <time>2015-02-21T10:36:17Z</time>
      </trkpt>
      <trkpt lat="48.74361" lon="2.28557">
        <ele>51</ele>
        <time>2015-02-21T10:36:25Z</time>
      </trkpt>
      <trkpt lat="48.74356" lon="2.2852">
        <ele>52</ele>
        <time>2015-02-21T10:36:50Z</time>
      </trkpt>
      <trkpt lat="48.74355" lon="2.28513">
        <ele>53</ele>
        <time>2015-02-21T10:36:54Z</time>
      </trkpt>
      <trkpt lat="48.7433" lon="2.28463">
        <ele>55</ele>
        <time>2015-02-21T10:37:29Z</time>
      </trkpt>
      <trkpt lat="48.74321" lon="2.28443">
        <ele>55</ele>
        <time>2015-02-21T10:37:44Z</time>
      </trkpt>
      <trkpt lat="48.74322" lon="2.28437">
        <ele>55</ele>
        <time>2015-02-21T10:37:55Z</time>
      </trkpt>
      <trkpt lat="48.74323" lon="2.28436">
        <ele>55</ele>
        <time>2015-02-21T10:39:07Z</time>
      </trkpt>
      <trkpt lat="48.74319" lon="2.28431">
        <ele>54</ele>
        <time>2015-02-21T10:39:12Z</time>
      </trkpt>
      <trkpt lat="48.74315" lon="2.28426">
        <ele>54</ele>
        <time>2015-02-21T10:39:21Z</time>
      </trkpt>
      <trkpt lat="48.74312" lon="2.28431">
        <ele>53</ele>
        <time>2015-02-21T10:39:26Z</time>
      </trkpt>
      <trkpt lat="48.74307" lon="2.28433">
        <ele>52</ele>
        <time>2015-02-21T10:39:31Z</time>
      </trkpt>
      <trkpt lat="48.74302" lon="2.28429">
        <ele>52</ele>
        <time>2015-02-21T10:39:35Z</time>
      </trkpt>
      <trkpt lat="48.74285" lon="2.2841">
        <ele>51</ele>
        <time>2015-02-21T10:39:57Z</time>
      </trkpt>
      <trkpt lat="48.74285" lon="2.28402">
        <ele>50</ele>
        <time>2015-02-21T10:40:03Z</time>
      </trkpt>
      <trkpt lat="48.74283" lon="2.28352">
        <ele>51</ele>
        <time>2015-02-21T10:40:36Z</time>
      </trkpt>
      <trkpt lat="48.7426" lon="2.28278">
        <ele>51</ele>
        <time>2015-02-21T10:41:13Z</time>
      </trkpt>
      <trkpt lat="48.74256" lon="2.28263">
        <ele>51</ele>
        <time>2015-02-21T10:41:24Z</time>
      </trkpt>
      <trkpt lat="48.74252" lon="2.28259">
        <ele>51</ele>
        <time>2015-02-21T10:41:29Z</time>
      </trkpt>
      <trkpt lat="48.74241" lon="2.28231">
        <ele>51</ele>
        <time>2015-02-21T10:41:49Z</time>
      </trkpt>
      <trkpt lat="48.74241" lon="2.28209">
        <ele>50</ele>
        <time>2015-02-21T10:42:03Z</time>
      </trkpt>
      <trkpt lat="48.74237" lon="2.28204">
        <ele>50</ele>
        <time>2015-02-21T10:42:10Z</time>
      </trkpt>
      <trkpt lat="48.74226" lon="2.2819">
        <ele>51</ele>
        <time>2015-02-21T10:42:23Z</time>
      </trkpt>
      <trkpt lat="48.74231" lon="2.28187">
        <ele>51</ele>
        <time>2015-02-21T10:42:31Z</time>
      </trkpt>
      <trkpt lat="48.74243" lon="2.28194">
        <ele>52</ele>
        <time>2015-02-21T10:42:45Z</time>
      </trkpt>
      <trkpt lat="48.74248" lon="2.28191">
        <ele>53</ele>
        <time>2015-02-21T10:42:50Z</time>
      </trkpt>
      <trkpt lat="48.74248" lon="2.28183">
        <ele>53</ele>
        <time>2015-02-21T10:42:54Z</time>
      </trkpt>
      <trkpt lat="48.74241" lon="2.28161">
        <ele>54</ele>
        <time>2015-02-21T10:43:05Z</time>
      </trkpt>
      <trkpt lat="48.74241" lon="2.28152">
        <ele>54</ele>
        <time>2015-02-21T10:43:09Z</time>
      </trkpt>
      <trkpt lat="48.74245" lon="2.28148">
        <ele>54</ele>
        <time>2015-02-21T10:43:13Z</time>
      </trkpt>
      <trkpt lat="48.7427" lon="2.28125">
        <ele>54</ele>
        <time>2015-02-21T10:43:50Z</time>
      </trkpt>
      <trkpt lat="48.74269" lon="2.28118">
        <ele>54</ele>
        <time>2015-02-21T10:43:55Z</time>
      </trkpt>
      <trkpt lat="48.74269" lon="2.28111">
        <ele>54</ele>
        <time>2015-02-21T10:44:01Z</time>
      </trkpt>
      <trkpt lat="48.7427" lon="2.28103">
        <ele>54</ele>
        <time>2015-02-21T10:44:08Z</time>
      </trkpt>
      <trkpt lat="48.74274" lon="2.28089">
        <ele>52</ele>
        <time>2015-02-21T10:44:18Z</time>
      </trkpt>
      <trkpt lat="48.74271" lon="2.28083">
        <ele>52</ele>
        <time>2015-02-21T10:44:22Z</time>
      </trkpt>
      <trkpt lat="48.74249" lon="2.28037">
        <ele>52</ele>
        <time>2015-02-21T10:44:53Z</time>
      </trkpt>
      <trkpt lat="48.74245" lon="2.28031">
        <ele>52</ele>
        <time>2015-02-21T10:45:25Z</time>
      </trkpt>
      <trkpt lat="48.7423" lon="2.27983">
        <ele>52</ele>
        <time>2015-02-21T10:45:58Z</time>
      </trkpt>
      <trkpt lat="48.7421" lon="2.27931">
        <ele>52</ele>
        <time>2015-02-21T10:46:28Z</time>
      </trkpt>
      <trkpt lat="48.74186" lon="2.27886">
        <ele>52</ele>
        <time>2015-02-21T10:47:02Z</time>
      </trkpt>
      <trkpt lat="48.74166" lon="2.27836">
        <ele>52</ele>
        <time>2015-02-21T10:47:35Z</time>
      </trkpt>
      <trkpt lat="48.74148" lon="2.27788">
        <ele>52</ele>
        <time>2015-02-21T10:48:07Z</time>
      </trkpt>
      <trkpt lat="48.74131" lon="2.27752">
        <ele>52</ele>
        <time>2015-02-21T10:48:32Z</time>
      </trkpt>
      <trkpt lat="48.74125" lon="2.27749">
        <ele>52</ele>
        <time>2015-02-21T10:48:40Z</time>
      </trkpt>
      <trkpt lat="48.74118" lon="2.27738">
        <ele>52</ele>
        <time>2015-02-21T10:48:51Z</time>
      </trkpt>
      <trkpt lat="48.74115" lon="2.27723">
        <ele>52</ele>
        <time>2015-02-21T10:49:01Z</time>
      </trkpt>
      <trkpt lat="48.74111" lon="2.2772">
        <ele>52</ele>
        <time>2015-02-21T10:49:05Z</time>
      </trkpt>
      <trkpt lat="48.74073" lon="2.27696">
        <ele>53</ele>
        <time>2015-02-21T10:49:36Z</time>
      </trkpt>
      <trkpt lat="48.74069" lon="2.27691">
        <ele>53</ele>
        <time>2015-02-21T10:49:41Z</time>
      </trkpt>
      <trkpt lat="48.74067" lon="2.27684">
        <ele>53</ele>
        <time>2015-02-21T10:49:46Z</time>
      </trkpt>
      <trkpt lat="48.74039" lon="2.27642">
        <ele>53</ele>
        <time>2015-02-21T10:50:19Z</time>
      </trkpt>
      <trkpt lat="48.74036" lon="2.27637">
        <ele>54</ele>
        <time>2015-02-21T10:50:23Z</time>
      </trkpt>
      <trkpt lat="48.74029" lon="2.27625">
        <ele>53</ele>
        <time>2015-02-21T10:50:31Z</time>
      </trkpt>
      <trkpt lat="48.74006" lon="2.27596">
        <ele>54</ele>
        <time>2015-02-21T10:51:04Z</time>
      </trkpt>
      <trkpt lat="48.73976" lon="2.27567">
        <ele>53</ele>
        <time>2015-02-21T10:51:35Z</time>
      </trkpt>
      <trkpt lat="48.7396" lon="2.27552">
        <ele>52</ele>
        <time>2015-02-21T10:51:53Z</time>
      </trkpt>
      <trkpt lat="48.73957" lon="2.27539">
        <ele>52</ele>
        <time>2015-02-21T10:52:04Z</time>
      </trkpt>
      <trkpt lat="48.73959" lon="2.27532">
        <ele>52</ele>
        <time>2015-02-21T10:52:09Z</time>
      </trkpt>
      <trkpt lat="48.73964" lon="2.27533">
        <ele>52</ele>
        <time>2015-02-21T10:52:15Z</time>
      </trkpt>
      <trkpt lat="48.73988" lon="2.27536">
        <ele>52</ele>
        <time>2015-02-21T10:52:32Z</time>
      </trkpt>
      <trkpt lat="48.74006" lon="2.27522">
        <ele>53</ele>
        <time>2015-02-21T10:52:53Z</time>
      </trkpt>
      <trkpt lat="48.74067" lon="2.27436">
        <ele>53</ele>
        <time>2015-02-21T10:53:11Z</time>
      </trkpt>
      <trkpt lat="48.74059" lon="2.27445">
        <ele>53</ele>
        <time>2015-02-21T10:53:18Z</time>
      </trkpt>
      <trkpt lat="48.74044" lon="2.27475">
        <ele>53</ele>
        <time>2015-02-21T10:53:20Z</time>
      </trkpt>
      <trkpt lat="48.74043" lon="2.27468">
        <ele>54</ele>
        <time>2015-02-21T10:53:27Z</time>
      </trkpt>
      <trkpt lat="48.74039" lon="2.27463">
        <ele>54</ele>
        <time>2015-02-21T10:53:30Z</time>
      </trkpt>
      <trkpt lat="48.74019" lon="2.27453">
        <ele>54</ele>
        <time>2015-02-21T10:53:48Z</time>
      </trkpt>
      <trkpt lat="48.73999" lon="2.27449">
        <ele>57</ele>
        <time>2015-02-21T10:54:11Z</time>
      </trkpt>
      <trkpt lat="48.74001" lon="2.27455">
        <ele>57</ele>
        <time>2015-02-21T10:54:20Z</time>
      </trkpt>
      <trkpt lat="48.74005" lon="2.2746">
        <ele>58</ele>
        <time>2015-02-21T10:54:25Z</time>
      </trkpt>
      <trkpt lat="48.74009" lon="2.27466">
        <ele>59</ele>
        <time>2015-02-21T10:54:31Z</time>
      </trkpt>
      <trkpt lat="48.74019" lon="2.27474">
        <ele>61</ele>
        <time>2015-02-21T10:54:40Z</time>
      </trkpt>
      <trkpt lat="48.74015" lon="2.27478">
        <ele>61</ele>
        <time>2015-02-21T10:54:44Z</time>
      </trkpt>
      <trkpt lat="48.74011" lon="2.27474">
        <ele>61</ele>
        <time>2015-02-21T10:54:48Z</time>
      </trkpt>
      <trkpt lat="48.74007" lon="2.2747">
        <ele>62</ele>
        <time>2015-02-21T10:54:53Z</time>
      </trkpt>
      <trkpt lat="48.74002" lon="2.2747">
        <ele>63</ele>
        <time>2015-02-21T10:54:59Z</time>
      </trkpt>
      <trkpt lat="48.73997" lon="2.2747">
        <ele>63</ele>
        <time>2015-02-21T10:55:04Z</time>
      </trkpt>
      <trkpt lat="48.73992" lon="2.27468">
        <ele>64</ele>
        <time>2015-02-21T10:55:09Z</time>
      </trkpt>
      <trkpt lat="48.73983" lon="2.27462">
        <ele>65</ele>
        <time>2015-02-21T10:55:17Z</time>
      </trkpt>
      <trkpt lat="48.7395" lon="2.27442">
        <ele>65</ele>
        <time>2015-02-21T10:55:47Z</time>
      </trkpt>
      <trkpt lat="48.73918" lon="2.27421">
        <ele>65</ele>
        <time>2015-02-21T10:56:18Z</time>
      </trkpt>
      <trkpt lat="48.73887" lon="2.274">
        <ele>65</ele>
        <time>2015-02-21T10:56:50Z</time>
      </trkpt>
      <trkpt lat="48.73883" lon="2.27395">
        <ele>65</ele>
        <time>2015-02-21T10:56:55Z</time>
      </trkpt>
      <trkpt lat="48.73867" lon="2.27389">
        <ele>64</ele>
        <time>2015-02-21T10:57:08Z</time>
      </trkpt>
      <trkpt lat="48.73835" lon="2.27362">
        <ele>59</ele>
        <time>2015-02-21T10:57:42Z</time>
      </trkpt>
      <trkpt lat="48.7382" lon="2.27358">
        <ele>59</ele>
        <time>2015-02-21T10:57:55Z</time>
      </trkpt>
      <trkpt lat="48.73789" lon="2.27332">
        <ele>61</ele>
        <time>2015-02-21T10:58:27Z</time>
      </trkpt>
      <trkpt lat="48.7378" lon="2.27326">
        <ele>61</ele>
        <time>2015-02-21T10:58:36Z</time>
      </trkpt>
      <trkpt lat="48.7376" lon="2.27321">
        <ele>60</ele>
        <time>2015-02-21T10:58:53Z</time>
      </trkpt>
      <trkpt lat="48.73757" lon="2.27317">
        <ele>59</ele>
        <time>2015-02-21T10:58:57Z</time>
      </trkpt>
      <trkpt lat="48.73718" lon="2.27295">
        <ele>59</ele>
        <time>2015-02-21T10:59:31Z</time>
      </trkpt>
      <trkpt lat="48.73709" lon="2.2729">
        <ele>59</ele>
        <time>2015-02-21T10:59:40Z</time>
      </trkpt>
      <trkpt lat="48.73677" lon="2.27273">
        <ele>64</ele>
        <time>2015-02-21T11:00:14Z</time>
      </trkpt>
      <trkpt lat="48.73641" lon="2.27261">
        <ele>66</ele>
        <time>2015-02-21T11:00:46Z</time>
      </trkpt>
      <trkpt lat="48.7361" lon="2.27228">
        <ele>66</ele>
        <time>2015-02-21T11:01:19Z</time>
      </trkpt>
      <trkpt lat="48.73574" lon="2.27212">
        <ele>66</ele>
        <time>2015-02-21T11:01:50Z</time>
      </trkpt>
      <trkpt lat="48.73542" lon="2.27192">
        <ele>67</ele>
        <time>2015-02-21T11:02:21Z</time>
      </trkpt>
      <trkpt lat="48.73533" lon="2.27183">
        <ele>67</ele>
        <time>2015-02-21T11:02:30Z</time>
      </trkpt>
      <trkpt lat="48.73508" lon="2.27148">
        <ele>64</ele>
        <time>2015-02-21T11:03:04Z</time>
      </trkpt>
      <trkpt lat="48.73479" lon="2.27107">
        <ele>58</ele>
        <time>2015-02-21T11:03:35Z</time>
      </trkpt>
      <trkpt lat="48.73472" lon="2.27096">
        <ele>58</ele>
        <time>2015-02-21T11:03:44Z</time>
      </trkpt>
      <trkpt lat="48.73472" lon="2.27089">
        <ele>57</ele>
        <time>2015-02-21T11:03:48Z</time>
      </trkpt>
      <trkpt lat="48.73473" lon="2.2706">
        <ele>56</ele>
        <time>2015-02-21T11:04:21Z</time>
      </trkpt>
      <trkpt lat="48.73478" lon="2.27048">
        <ele>56</ele>
        <time>2015-02-21T11:04:32Z</time>
      </trkpt>
      <trkpt lat="48.73474" lon="2.27043">
        <ele>56</ele>
        <time>2015-02-21T11:04:38Z</time>
      </trkpt>
      <trkpt lat="48.73472" lon="2.27036">
        <ele>56</ele>
        <time>2015-02-21T11:04:44Z</time>
      </trkpt>
      <trkpt lat="48.73458" lon="2.27014">
        <ele>56</ele>
        <time>2015-02-21T11:05:03Z</time>
      </trkpt>
      <trkpt lat="48.73459" lon="2.27007">
        <ele>56</ele>
        <time>2015-02-21T11:05:48Z</time>
      </trkpt>
      <trkpt lat="48.73458" lon="2.26999">
        <ele>56</ele>
        <time>2015-02-21T11:05:53Z</time>
      </trkpt>
      <trkpt lat="48.73439" lon="2.26961">
        <ele>56</ele>
        <time>2015-02-21T11:06:25Z</time>
      </trkpt>
      <trkpt lat="48.73431" lon="2.26908">
        <ele>57</ele>
        <time>2015-02-21T11:06:58Z</time>
      </trkpt>
      <trkpt lat="48.73428" lon="2.26884">
        <ele>57</ele>
        <time>2015-02-21T11:07:12Z</time>
      </trkpt>
      <trkpt lat="48.73434" lon="2.26859">
        <ele>57</ele>
        <time>2015-02-21T11:07:36Z</time>
      </trkpt>
      <trkpt lat="48.73423" lon="2.26793">
        <ele>58</ele>
        <time>2015-02-21T11:08:07Z</time>
      </trkpt>
      <trkpt lat="48.73414" lon="2.26734">
        <ele>59</ele>
        <time>2015-02-21T11:08:40Z</time>
      </trkpt>
      <trkpt lat="48.73405" lon="2.26675">
        <ele>60</ele>
        <time>2015-02-21T11:09:13Z</time>
      </trkpt>
      <trkpt lat="48.73405" lon="2.26617">
        <ele>62</ele>
        <time>2015-02-21T11:09:45Z</time>
      </trkpt>
      <trkpt lat="48.73411" lon="2.266">
        <ele>61</ele>
        <time>2015-02-21T11:09:59Z</time>
      </trkpt>
      <trkpt lat="48.73416" lon="2.26596">
        <ele>61</ele>
        <time>2015-02-21T11:10:13Z</time>
      </trkpt>
      <trkpt lat="48.7342" lon="2.26597">
        <ele>61</ele>
        <time>2015-02-21T11:10:17Z</time>
      </trkpt>
      <trkpt lat="48.73443" lon="2.26615">
        <ele>59</ele>
        <time>2015-02-21T11:10:39Z</time>
      </trkpt>
      <trkpt lat="48.73458" lon="2.26608">
        <ele>59</ele>
        <time>2015-02-21T11:10:51Z</time>
      </trkpt>
      <trkpt lat="48.73461" lon="2.26603">
        <ele>59</ele>
        <time>2015-02-21T11:10:56Z</time>
      </trkpt>
      <trkpt lat="48.73463" lon="2.26597">
        <ele>59</ele>
        <time>2015-02-21T11:11:00Z</time>
      </trkpt>
      <trkpt lat="48.73488" lon="2.26547">
        <ele>60</ele>
        <time>2015-02-21T11:11:32Z</time>
      </trkpt>
      <trkpt lat="48.73491" lon="2.26492">
        <ele>61</ele>
        <time>2015-02-21T11:12:04Z</time>
      </trkpt>
      <trkpt lat="48.73488" lon="2.2644">
        <ele>62</ele>
        <time>2015-02-21T11:12:37Z</time>
      </trkpt>
      <trkpt lat="48.7348" lon="2.26383">
        <ele>64</ele>
        <time>2015-02-21T11:13:09Z</time>
      </trkpt>
      <trkpt lat="48.73477" lon="2.26376">
        <ele>63</ele>
        <time>2015-02-21T11:13:13Z</time>
      </trkpt>
      <trkpt lat="48.73476" lon="2.26368">
        <ele>63</ele>
        <time>2015-02-21T11:13:18Z</time>
      </trkpt>
      <trkpt lat="48.73477" lon="2.26363">
        <ele>64</ele>
        <time>2015-02-21T11:13:25Z</time>
      </trkpt>
      <trkpt lat="48.73471" lon="2.26328">
        <ele>65</ele>
        <time>2015-02-21T11:13:48Z</time>
      </trkpt>
      <trkpt lat="48.73464" lon="2.26309">
        <ele>65</ele>
        <time>2015-02-21T11:13:57Z</time>
      </trkpt>
      <trkpt lat="48.73465" lon="2.26292">
        <ele>65</ele>
        <time>2015-02-21T11:14:06Z</time>
      </trkpt>
      <trkpt lat="48.7346" lon="2.26288">
        <ele>65</ele>
        <time>2015-02-21T11:14:09Z</time>
      </trkpt>
      <trkpt lat="48.73455" lon="2.26286">
        <ele>65</ele>
        <time>2015-02-21T11:14:12Z</time>
      </trkpt>
      <trkpt lat="48.73451" lon="2.26282">
        <ele>65</ele>
        <time>2015-02-21T11:14:16Z</time>
      </trkpt>
      <trkpt lat="48.73451" lon="2.26273">
        <ele>65</ele>
        <time>2015-02-21T11:14:20Z</time>
      </trkpt>
      <trkpt lat="48.73453" lon="2.2625">
        <ele>65</ele>
        <time>2015-02-21T11:14:35Z</time>
      </trkpt>
      <trkpt lat="48.73454" lon="2.26243">
        <ele>66</ele>
        <time>2015-02-21T11:14:40Z</time>
      </trkpt>
      <trkpt lat="48.73454" lon="2.2618">
        <ele>67</ele>
        <time>2015-02-21T11:15:11Z</time>
      </trkpt>
      <trkpt lat="48.73453" lon="2.26173">
        <ele>67</ele>
        <time>2015-02-21T11:15:17Z</time>
      </trkpt>
      <trkpt lat="48.73463" lon="2.2613">
        <ele>67</ele>
        <time>2015-02-21T11:15:41Z</time>
      </trkpt>
      <trkpt lat="48.73483" lon="2.26087">
        <ele>66</ele>
        <time>2015-02-21T11:16:13Z</time>
      </trkpt>
      <trkpt lat="48.73486" lon="2.26064">
        <ele>66</ele>
        <time>2015-02-21T11:16:24Z</time>
      </trkpt>
      <trkpt lat="48.73495" lon="2.26045">
        <ele>66</ele>
        <time>2015-02-21T11:16:37Z</time>
      </trkpt>
      <trkpt lat="48.73505" lon="2.26038">
        <ele>66</ele>
        <time>2015-02-21T11:16:46Z</time>
      </trkpt>
      <trkpt lat="48.73528" lon="2.26026">
        <ele>64</ele>
        <time>2015-02-21T11:17:12Z</time>
      </trkpt>
      <trkpt lat="48.73531" lon="2.2602">
        <ele>63</ele>
        <time>2015-02-21T11:17:19Z</time>
      </trkpt>
      <trkpt lat="48.73575" lon="2.25981">
        <ele>61</ele>
        <time>2015-02-21T11:17:58Z</time>
      </trkpt>
      <trkpt lat="48.73609" lon="2.25968">
        <ele>59</ele>
        <time>2015-02-21T11:18:28Z</time>
      </trkpt>
      <trkpt lat="48.73615" lon="2.25956">
        <ele>59</ele>
        <time>2015-02-21T11:18:41Z</time>
      </trkpt>
      <trkpt lat="48.73614" lon="2.25942">
        <ele>59</ele>
        <time>2015-02-21T11:18:50Z</time>
      </trkpt>
      <trkpt lat="48.7361" lon="2.25929">
        <ele>59</ele>
        <time>2015-02-21T11:19:00Z</time>
      </trkpt>
      <trkpt lat="48.7361" lon="2.2592">
        <ele>59</ele>
        <time>2015-02-21T11:19:05Z</time>
      </trkpt>
      <trkpt lat="48.73617" lon="2.25869">
        <ele>59</ele>
        <time>2015-02-21T11:19:34Z</time>
      </trkpt>
      <trkpt lat="48.73621" lon="2.25864">
        <ele>59</ele>
        <time>2015-02-21T11:19:39Z</time>
      </trkpt>
      <trkpt lat="48.73622" lon="2.25857">
        <ele>59</ele>
        <time>2015-02-21T11:19:45Z</time>
      </trkpt>
      <trkpt lat="48.73613" lon="2.25819">
        <ele>60</ele>
        <time>2015-02-21T11:20:12Z</time>
      </trkpt>
      <trkpt lat="48.73603" lon="2.25763">
        <ele>61</ele>
        <time>2015-02-21T11:20:45Z</time>
      </trkpt>
      <trkpt lat="48.73604" lon="2.25709">
        <ele>61</ele>
        <time>2015-02-21T11:21:16Z</time>
      </trkpt>
      <trkpt lat="48.73607" lon="2.25702">
        <ele>61</ele>
        <time>2015-02-21T11:21:20Z</time>
      </trkpt>
      <trkpt lat="48.73616" lon="2.25694">
        <ele>61</ele>
        <time>2015-02-21T11:21:27Z</time>
      </trkpt>
      <trkpt lat="48.7363" lon="2.25672">
        <ele>59</ele>
        <time>2015-02-21T11:21:46Z</time>
      </trkpt>
      <trkpt lat="48.73636" lon="2.25642">
        <ele>58</ele>
        <time>2015-02-21T11:22:01Z</time>
      </trkpt>
      <trkpt lat="48.73639" lon="2.25638">
        <ele>58</ele>
        <time>2015-02-21T11:22:04Z</time>
      </trkpt>
      <trkpt lat="48.73641" lon="2.25632">
        <ele>58</ele>
        <time>2015-02-21T11:22:07Z</time>
      </trkpt>
      <trkpt lat="48.7364" lon="2.25616">
        <ele>58</ele>
        <time>2015-02-21T11:22:13Z</time>
      </trkpt>
      <trkpt lat="48.73632" lon="2.25586">
        <ele>59</ele>
        <time>2015-02-21T11:22:26Z</time>
      </trkpt>
      <trkpt lat="48.73633" lon="2.25579">
        <ele>59</ele>
        <time>2015-02-21T11:22:30Z</time>
      </trkpt>
      <trkpt lat="48.73649" lon="2.25547">
        <ele>59</ele>
        <time>2015-02-21T11:22:51Z</time>
      </trkpt>
      <trkpt lat="48.73681" lon="2.25518">
        <ele>59</ele>
        <time>2015-02-21T11:23:22Z</time>
      </trkpt>
      <trkpt lat="48.73688" lon="2.25507">
        <ele>59</ele>
        <time>2015-02-21T11:23:30Z</time>
      </trkpt>
      <trkpt lat="48.7369" lon="2.25462">
        <ele>59</ele>
        <time>2015-02-21T11:23:54Z</time>
      </trkpt>
      <trkpt lat="48.73689" lon="2.25455">
        <ele>59</ele>
        <time>2015-02-21T11:23:57Z</time>
      </trkpt>
      <trkpt lat="48.73692" lon="2.25442">
        <ele>59</ele>
        <time>2015-02-21T11:24:09Z</time>
      </trkpt>
      <trkpt lat="48.73697" lon="2.25442">
        <ele>59</ele>
        <time>2015-02-21T11:24:14Z</time>
      </trkpt>
      <trkpt lat="48.73719" lon="2.25442">
        <ele>58</ele>
        <time>2015-02-21T11:24:30Z</time>
      </trkpt>
      <trkpt lat="48.73735" lon="2.25432">
        <ele>56</ele>
        <time>2015-02-21T11:24:53Z</time>
      </trkpt>
      <trkpt lat="48.73775" lon="2.2543">
        <ele>56</ele>
        <time>2015-02-21T11:25:26Z</time>
      </trkpt>
      <trkpt lat="48.73795" lon="2.25432">
        <ele>56</ele>
        <time>2015-02-21T11:25:44Z</time>
      </trkpt>
      <trkpt lat="48.73799" lon="2.25436">
        <ele>56</ele>
        <time>2015-02-21T11:25:51Z</time>
      </trkpt>
      <trkpt lat="48.73819" lon="2.25436">
        <ele>56</ele>
        <time>2015-02-21T11:26:07Z</time>
      </trkpt>
      <trkpt lat="48.73836" lon="2.25447">
        <ele>57</ele>
        <time>2015-02-21T11:26:33Z</time>
      </trkpt>
      <trkpt lat="48.7384" lon="2.25441">
        <ele>57</ele>
        <time>2015-02-21T11:26:39Z</time>
      </trkpt>
      <trkpt lat="48.73845" lon="2.25387">
        <ele>57</ele>
        <time>2015-02-21T11:27:10Z</time>
      </trkpt>
      <trkpt lat="48.73844" lon="2.25379">
        <ele>57</ele>
        <time>2015-02-21T11:27:14Z</time>
      </trkpt>
      <trkpt lat="48.73848" lon="2.25335">
        <ele>58</ele>
        <time>2015-02-21T11:27:40Z</time>
      </trkpt>
      <trkpt lat="48.73852" lon="2.25331">
        <ele>58</ele>
        <time>2015-02-21T11:27:46Z</time>
      </trkpt>
      <trkpt lat="48.73861" lon="2.25307">
        <ele>58</ele>
        <time>2015-02-21T11:28:12Z</time>
      </trkpt>
      <trkpt lat="48.73862" lon="2.253">
        <ele>59</ele>
        <time>2015-02-21T11:28:18Z</time>
      </trkpt>
      <trkpt lat="48.73863" lon="2.25293">
        <ele>59</ele>
        <time>2015-02-21T11:28:22Z</time>
      </trkpt>
      <trkpt lat="48.73864" lon="2.25289">
        <ele>60</ele>
        <time>2015-02-21T11:28:34Z</time>
      </trkpt>
      <trkpt lat="48.73865" lon="2.25284">
        <ele>60</ele>
        <time>2015-02-21T11:28:43Z</time>
      </trkpt>
      <trkpt lat="48.73866" lon="2.25277">
        <ele>60</ele>
        <time>2015-02-21T11:29:28Z</time>
      </trkpt>
      <trkpt lat="48.73855" lon="2.25229">
        <ele>61</ele>
        <time>2015-02-21T11:30:03Z</time>
      </trkpt>
      <trkpt lat="48.73837" lon="2.25181">
        <ele>61</ele>
        <time>2015-02-21T11:30:33Z</time>
      </trkpt>
      <trkpt lat="48.73818" lon="2.25134">
        <ele>61</ele>
        <time>2015-02-21T11:31:03Z</time>
      </trkpt>
      <trkpt lat="48.73802" lon="2.25087">
        <ele>61</ele>
        <time>2015-02-21T11:31:35Z</time>
      </trkpt>
      <trkpt lat="48.73779" lon="2.25038">
        <ele>61</ele>
        <time>2015-02-21T11:32:07Z</time>
      </trkpt>
      <trkpt lat="48.73769" lon="2.25017">
        <ele>61</ele>
        <time>2015-02-21T11:32:21Z</time>
      </trkpt>
      <trkpt lat="48.7377" lon="2.25009">
        <ele>61</ele>
        <time>2015-02-21T11:32:27Z</time>
      </trkpt>
      <trkpt lat="48.73769" lon="2.25003">
        <ele>62</ele>
        <time>2015-02-21T11:32:34Z</time>
      </trkpt>
      <trkpt lat="48.73762" lon="2.24991">
        <ele>62</ele>
        <time>2015-02-21T11:32:42Z</time>
      </trkpt>
      <trkpt lat="48.73758" lon="2.24988">
        <ele>62</ele>
        <time>2015-02-21T11:32:48Z</time>
      </trkpt>
      <trkpt lat="48.73756" lon="2.24981">
        <ele>62</ele>
        <time>2015-02-21T11:32:52Z</time>
      </trkpt>
      <trkpt lat="48.73751" lon="2.24955">
        <ele>62</ele>
        <time>2015-02-21T11:33:06Z</time>
      </trkpt>
      <trkpt lat="48.73727" lon="2.24913">
        <ele>62</ele>
        <time>2015-02-21T11:33:39Z</time>
      </trkpt>
      <trkpt lat="48.7371" lon="2.24883">
        <ele>61</ele>
        <time>2015-02-21T11:33:59Z</time>
      </trkpt>
      <trkpt lat="48.73709" lon="2.24874">
        <ele>61</ele>
        <time>2015-02-21T11:34:08Z</time>
      </trkpt>
      <trkpt lat="48.73708" lon="2.24866">
        <ele>61</ele>
        <time>2015-02-21T11:34:12Z</time>
      </trkpt>
      <trkpt lat="48.73694" lon="2.24809">
        <ele>61</ele>
        <time>2015-02-21T11:34:43Z</time>
      </trkpt>
      <trkpt lat="48.73696" lon="2.24779">
        <ele>61</ele>
        <time>2015-02-21T11:34:56Z</time>
      </trkpt>
      <trkpt lat="48.73701" lon="2.24769">
        <ele>62</ele>
        <time>2015-02-21T11:35:03Z</time>
      </trkpt>
      <trkpt lat="48.73711" lon="2.24753">
        <ele>61</ele>
        <time>2015-02-21T11:35:19Z</time>
      </trkpt>
      <trkpt lat="48.73716" lon="2.24733">
        <ele>61</ele>
        <time>2015-02-21T11:35:32Z</time>
      </trkpt>
      <trkpt lat="48.73721" lon="2.24733">
        <ele>61</ele>
        <time>2015-02-21T11:35:36Z</time>
      </trkpt>
      <trkpt lat="48.73721" lon="2.24724">
        <ele>62</ele>
        <time>2015-02-21T11:35:41Z</time>
      </trkpt>
      <trkpt lat="48.73717" lon="2.24694">
        <ele>60</ele>
        <time>2015-02-21T11:35:59Z</time>
      </trkpt>
      <trkpt lat="48.7372" lon="2.24683">
        <ele>60</ele>
        <time>2015-02-21T11:36:04Z</time>
      </trkpt>
      <trkpt lat="48.73747" lon="2.24636">
        <ele>60</ele>
        <time>2015-02-21T11:36:37Z</time>
      </trkpt>
      <trkpt lat="48.73769" lon="2.24589">
        <ele>60</ele>
        <time>2015-02-21T11:37:11Z</time>
      </trkpt>
      <trkpt lat="48.7377" lon="2.24524">
        <ele>60</ele>
        <time>2015-02-21T11:37:41Z</time>
      </trkpt>
      <trkpt lat="48.7376" lon="2.24472">
        <ele>60</ele>
        <time>2015-02-21T11:38:17Z</time>
      </trkpt>
      <trkpt lat="48.73732" lon="2.24423">
        <ele>61</ele>
        <time>2015-02-21T11:38:48Z</time>
      </trkpt>
      <trkpt lat="48.73728" lon="2.24417">
        <ele>61</ele>
        <time>2015-02-21T11:38:53Z</time>
      </trkpt>
      <trkpt lat="48.73722" lon="2.24388">
        <ele>62</ele>
        <time>2015-02-21T11:39:09Z</time>
      </trkpt>
      <trkpt lat="48.73727" lon="2.24375">
        <ele>62</ele>
        <time>2015-02-21T11:39:23Z</time>
      </trkpt>
      <trkpt lat="48.73733" lon="2.24325">
        <ele>61</ele>
        <time>2015-02-21T11:39:55Z</time>
      </trkpt>
      <trkpt lat="48.73734" lon="2.24312">
        <ele>61</ele>
        <time>2015-02-21T11:40:06Z</time>
      </trkpt>
      <trkpt lat="48.73738" lon="2.24311">
        <ele>61</ele>
        <time>2015-02-21T11:40:15Z</time>
      </trkpt>
      <trkpt lat="48.73746" lon="2.24301">
        <ele>61</ele>
        <time>2015-02-21T11:40:58Z</time>
      </trkpt>
      <trkpt lat="48.73755" lon="2.24301">
        <ele>61</ele>
        <time>2015-02-21T11:41:09Z</time>
      </trkpt>
      <trkpt lat="48.73791" lon="2.24277">
        <ele>60</ele>
        <time>2015-02-21T11:41:42Z</time>
      </trkpt>
      <trkpt lat="48.73799" lon="2.24269">
        <ele>60</ele>
        <time>2015-02-21T11:41:51Z</time>
      </trkpt>
      <trkpt lat="48.73799" lon="2.24254">
        <ele>60</ele>
        <time>2015-02-21T11:42:01Z</time>
      </trkpt>
      <trkpt lat="48.738" lon="2.24207">
        <ele>60</ele>
        <time>2015-02-21T11:42:31Z</time>
      </trkpt>
      <trkpt lat="48.73802" lon="2.242">
        <ele>60</ele>
        <time>2015-02-21T11:42:36Z</time>
      </trkpt>
      <trkpt lat="48.73822" lon="2.24181">
        <ele>61</ele>
        <time>2015-02-21T11:42:59Z</time>
      </trkpt>
      <trkpt lat="48.73859" lon="2.24177">
        <ele>62</ele>
        <time>2015-02-21T11:43:30Z</time>
      </trkpt>
      <trkpt lat="48.73868" lon="2.24169">
        <ele>64</ele>
        <time>2015-02-21T11:43:41Z</time>
      </trkpt>
      <trkpt lat="48.7387" lon="2.24162">
        <ele>64</ele>
        <time>2015-02-21T11:43:47Z</time>
      </trkpt>
      <trkpt lat="48.73869" lon="2.24154">
        <ele>65</ele>
        <time>2015-02-21T11:43:51Z</time>
      </trkpt>
      <trkpt lat="48.7386" lon="2.24105">
        <ele>65</ele>
        <time>2015-02-21T11:44:22Z</time>
      </trkpt>
      <trkpt lat="48.73848" lon="2.24053">
        <ele>64</ele>
        <time>2015-02-21T11:44:53Z</time>
      </trkpt>
      <trkpt lat="48.73843" lon="2.23999">
        <ele>63</ele>
        <time>2015-02-21T11:45:25Z</time>
      </trkpt>
      <trkpt lat="48.73843" lon="2.23992">
        <ele>63</ele>
        <time>2015-02-21T11:45:29Z</time>
      </trkpt>
      <trkpt lat="48.73852" lon="2.23939">
        <ele>63</ele>
        <time>2015-02-21T11:46:01Z</time>
      </trkpt>
      <trkpt lat="48.73863" lon="2.23888">
        <ele>63</ele>
        <time>2015-02-21T11:46:32Z</time>
      </trkpt>
      <trkpt lat="48.73873" lon="2.2383">
        <ele>63</ele>
        <time>2015-02-21T11:47:05Z</time>
      </trkpt>
      <trkpt lat="48.73877" lon="2.23797">
        <ele>63</ele>
        <time>2015-02-21T11:47:21Z</time>
      </trkpt>
      <trkpt lat="48.73881" lon="2.23792">
        <ele>62</ele>
        <time>2015-02-21T11:47:26Z</time>
      </trkpt>
      <trkpt lat="48.73883" lon="2.23786">
        <ele>62</ele>
        <time>2015-02-21T11:47:31Z</time>
      </trkpt>
      <trkpt lat="48.73902" lon="2.23769">
        <ele>63</ele>
        <time>2015-02-21T11:47:51Z</time>
      </trkpt>
      <trkpt lat="48.73945" lon="2.23748">
        <ele>63</ele>
        <time>2015-02-21T11:48:28Z</time>
      </trkpt>
      <trkpt lat="48.73961" lon="2.23732">
        <ele>63</ele>
        <time>2015-02-21T11:48:47Z</time>
      </trkpt>
      <trkpt lat="48.74002" lon="2.23692">
        <ele>63</ele>
        <time>2015-02-21T11:49:21Z</time>
      </trkpt>
      <trkpt lat="48.74038" lon="2.23673">
        <ele>63</ele>
        <time>2015-02-21T11:49:56Z</time>
      </trkpt>
      <trkpt lat="48.7408" lon="2.23661">
        <ele>63</ele>
        <time>2015-02-21T11:50:29Z</time>
      </trkpt>
      <trkpt lat="48.74106" lon="2.23658">
        <ele>64</ele>
        <time>2015-02-21T11:50:56Z</time>
      </trkpt>
      <trkpt lat="48.7411" lon="2.23665">
        <ele>64</ele>
        <time>2015-02-21T11:51:12Z</time>
      </trkpt>
      <trkpt lat="48.74113" lon="2.23666">
        <ele>65</ele>
        <time>2015-02-21T11:52:29Z</time>
      </trkpt>
      <trkpt lat="48.74118" lon="2.23665">
        <ele>65</ele>
        <time>2015-02-21T11:53:10Z</time>
      </trkpt>
      <trkpt lat="48.74123" lon="2.23667">
        <ele>65</ele>
        <time>2015-02-21T11:53:15Z</time>
      </trkpt>
      <trkpt lat="48.74143" lon="2.23681">
        <ele>68</ele>
        <time>2015-02-21T11:53:46Z</time>
      </trkpt>
      <trkpt lat="48.74146" lon="2.23687">
        <ele>69</ele>
        <time>2015-02-21T11:53:52Z</time>
      </trkpt>
      <trkpt lat="48.74173" lon="2.23697">
        <ele>74</ele>
        <time>2015-02-21T11:54:25Z</time>
      </trkpt>
      <trkpt lat="48.74177" lon="2.23701">
        <ele>74</ele>
        <time>2015-02-21T11:54:31Z</time>
      </trkpt>
      <trkpt lat="48.74188" lon="2.23701">
        <ele>76</ele>
        <time>2015-02-21T11:54:43Z</time>
      </trkpt>
      <trkpt lat="48.74192" lon="2.23697">
        <ele>76</ele>
        <time>2015-02-21T11:54:49Z</time>
      </trkpt>
      <trkpt lat="48.74195" lon="2.23702">
        <ele>76</ele>
        <time>2015-02-21T11:54:57Z</time>
      </trkpt>
      <trkpt lat="48.74198" lon="2.23708">
        <ele>77</ele>
        <time>2015-02-21T11:55:03Z</time>
      </trkpt>
      <trkpt lat="48.74198" lon="2.23715">
        <ele>78</ele>
        <time>2015-02-21T11:55:10Z</time>
      </trkpt>
      <trkpt lat="48.74197" lon="2.23722">
        <ele>79</ele>
        <time>2015-02-21T11:55:20Z</time>
      </trkpt>
      <trkpt lat="48.74199" lon="2.23727">
        <ele>81</ele>
        <time>2015-02-21T11:55:48Z</time>
      </trkpt>
      <trkpt lat="48.74203" lon="2.23729">
        <ele>81</ele>
        <time>2015-02-21T11:55:56Z</time>
      </trkpt>
      <trkpt lat="48.74216" lon="2.23738">
        <ele>86</ele>
        <time>2015-02-21T11:56:16Z</time>
      </trkpt>
      <trkpt lat="48.74233" lon="2.23739">
        <ele>89</ele>
        <time>2015-02-21T11:56:44Z</time>
      </trkpt>
      <trkpt lat="48.74238" lon="2.23736">
        <ele>90</ele>
        <time>2015-02-21T11:56:52Z</time>
      </trkpt>
      <trkpt lat="48.74254" lon="2.23741">
        <ele>96</ele>
        <time>2015-02-21T11:57:25Z</time>
      </trkpt>
      <trkpt lat="48.74274" lon="2.23741">
        <ele>100</ele>
        <time>2015-02-21T11:57:55Z</time>
      </trkpt>
      <trkpt lat="48.74299" lon="2.23744">
        <ele>104</ele>
        <time>2015-02-21T11:58:28Z</time>
      </trkpt>
      <trkpt lat="48.74304" lon="2.23745">
        <ele>106</ele>
        <time>2015-02-21T11:58:35Z</time>
      </trkpt>
      <trkpt lat="48.74311" lon="2.23746">
        <ele>107</ele>
        <time>2015-02-21T11:58:42Z</time>
      </trkpt>
      <trkpt lat="48.74328" lon="2.23762">
        <ele>112</ele>
        <time>2015-02-21T11:59:15Z</time>
      </trkpt>
      <trkpt lat="48.74351" lon="2.23769">
        <ele>117</ele>
        <time>2015-02-21T11:59:51Z</time>
      </trkpt>
      <trkpt lat="48.74373" lon="2.23778">
        <ele>124</ele>
        <time>2015-02-21T12:00:22Z</time>
      </trkpt>
      <trkpt lat="48.74384" lon="2.23778">
        <ele>126</ele>
        <time>2015-02-21T12:00:35Z</time>
      </trkpt>
      <trkpt lat="48.74402" lon="2.23787">
        <ele>132</ele>
        <time>2015-02-21T12:01:05Z</time>
      </trkpt>
      <trkpt lat="48.74412" lon="2.2379">
        <ele>135</ele>
        <time>2015-02-21T12:01:19Z</time>
      </trkpt>
      <trkpt lat="48.74417" lon="2.23796">
        <ele>137</ele>
        <time>2015-02-21T12:01:39Z</time>
      </trkpt>
      <trkpt lat="48.74423" lon="2.23807">
        <ele>138</ele>
        <time>2015-02-21T12:01:56Z</time>
      </trkpt>
      <trkpt lat="48.74435" lon="2.23819">
        <ele>140</ele>
        <time>2015-02-21T12:02:14Z</time>
      </trkpt>
      <trkpt lat="48.74433" lon="2.23818">
        <ele>141</ele>
        <time>2015-02-21T12:03:05Z</time>
      </trkpt>
      <trkpt lat="48.7443" lon="2.23813">
        <ele>141</ele>
        <time>2015-02-21T12:04:23Z</time>
      </trkpt>
      <trkpt lat="48.74428" lon="2.23811">
        <ele>141</ele>
        <time>2015-02-21T12:04:29Z</time>
      </trkpt>
      <trkpt lat="48.74431" lon="2.23802">
        <ele>141</ele>
        <time>2015-02-21T12:04:41Z</time>
      </trkpt>
      <trkpt lat="48.74432" lon="2.23807">
        <ele>141</ele>
        <time>2015-02-21T12:05:25Z</time>
      </trkpt>
      <trkpt lat="48.74434" lon="2.23811">
        <ele>141</ele>
        <time>2015-02-21T12:05:36Z</time>
      </trkpt>
      <trkpt lat="48.74432" lon="2.2382">
        <ele>141</ele>
        <time>2015-02-21T12:06:20Z</time>
      </trkpt>
      <trkpt lat="48.74435" lon="2.23821">
        <ele>141</ele>
        <time>2015-02-21T12:06:49Z</time>
      </trkpt>
      <trkpt lat="48.7444" lon="2.23825">
        <ele>141</ele>
        <time>2015-02-21T12:06:56Z</time>
      </trkpt>
      <trkpt lat="48.7444" lon="2.23815">
        <ele>142</ele>
        <time>2015-02-21T12:12:20Z</time>
      </trkpt>
      <trkpt lat="48.74438" lon="2.23821">
        <ele>142</ele>
        <time>2015-02-21T12:18:01Z</time>
      </trkpt>
      <trkpt lat="48.74436" lon="2.23825">
        <ele>142</ele>
        <time>2015-02-21T12:19:06Z</time>
      </trkpt>
      <trkpt lat="48.74435" lon="2.2382">
        <ele>142</ele>
        <time>2015-02-21T12:20:21Z</time>
      </trkpt>
      <trkpt lat="48.74436" lon="2.23817">
        <ele>142</ele>
        <time>2015-02-21T12:20:44Z</time>
      </trkpt>
      <trkpt lat="48.7443" lon="2.2382">
        <ele>142</ele>
        <time>2015-02-21T12:21:09Z</time>
      </trkpt>
      <trkpt lat="48.74432" lon="2.23817">
        <ele>144</ele>
        <time>2015-02-21T12:22:04Z</time>
      </trkpt>
      <trkpt lat="48.74433" lon="2.23822">
        <ele>146</ele>
        <time>2015-02-21T12:33:17Z</time>
      </trkpt>
      <trkpt lat="48.74429" lon="2.23827">
        <ele>145</ele>
        <time>2015-02-21T12:33:22Z</time>
      </trkpt>
      <trkpt lat="48.74427" lon="2.2382">
        <ele>146</ele>
        <time>2015-02-21T12:36:00Z</time>
      </trkpt>
      <trkpt lat="48.74426" lon="2.23813">
        <ele>146</ele>
        <time>2015-02-21T12:36:31Z</time>
      </trkpt>
      <trkpt lat="48.74424" lon="2.23805">
        <ele>145</ele>
        <time>2015-02-21T12:36:57Z</time>
      </trkpt>
      <trkpt lat="48.74422" lon="2.23799">
        <ele>144</ele>
        <time>2015-02-21T12:37:28Z</time>
      </trkpt>
      <trkpt lat="48.74405" lon="2.23811">
        <ele>143</ele>
        <time>2015-02-21T12:38:05Z</time>
      </trkpt>
      <trkpt lat="48.74396" lon="2.23818">
        <ele>142</ele>
        <time>2015-02-21T12:38:15Z</time>
      </trkpt>
      <trkpt lat="48.74384" lon="2.23849">
        <ele>142</ele>
        <time>2015-02-21T12:38:50Z</time>
      </trkpt>
      <trkpt lat="48.74373" lon="2.23889">
        <ele>143</ele>
        <time>2015-02-21T12:39:22Z</time>
      </trkpt>
      <trkpt lat="48.7438" lon="2.239">
        <ele>143</ele>
        <time>2015-02-21T12:39:37Z</time>
      </trkpt>
      <trkpt lat="48.74416" lon="2.23917">
        <ele>144</ele>
        <time>2015-02-21T12:40:15Z</time>
      </trkpt>
      <trkpt lat="48.74432" lon="2.23934">
        <ele>145</ele>
        <time>2015-02-21T12:40:35Z</time>
      </trkpt>
      <trkpt lat="48.74458" lon="2.23948">
        <ele>146</ele>
        <time>2015-02-21T12:41:02Z</time>
      </trkpt>
      <trkpt lat="48.74467" lon="2.23946">
        <ele>146</ele>
        <time>2015-02-21T12:41:29Z</time>
      </trkpt>
      <trkpt lat="48.74471" lon="2.23952">
        <ele>146</ele>
        <time>2015-02-21T12:42:28Z</time>
      </trkpt>
      <trkpt lat="48.74495" lon="2.23974">
        <ele>145</ele>
        <time>2015-02-21T12:43:03Z</time>
      </trkpt>
      <trkpt lat="48.74522" lon="2.23987">
        <ele>145</ele>
        <time>2015-02-21T12:43:34Z</time>
      </trkpt>
      <trkpt lat="48.7453" lon="2.23993">
        <ele>145</ele>
        <time>2015-02-21T12:43:44Z</time>
      </trkpt>
      <trkpt lat="48.74555" lon="2.24012">
        <ele>147</ele>
        <time>2015-02-21T12:44:19Z</time>
      </trkpt>
      <trkpt lat="48.74588" lon="2.24039">
        <ele>151</ele>
        <time>2015-02-21T12:44:59Z</time>
      </trkpt>
      <trkpt lat="48.74617" lon="2.24069">
        <ele>153</ele>
        <time>2015-02-21T12:45:32Z</time>
      </trkpt>
      <trkpt lat="48.74628" lon="2.24103">
        <ele>154</ele>
        <time>2015-02-21T12:45:57Z</time>
      </trkpt>
      <trkpt lat="48.74626" lon="2.24139">
        <ele>154</ele>
        <time>2015-02-21T12:46:19Z</time>
      </trkpt>
      <trkpt lat="48.74627" lon="2.24193">
        <ele>155</ele>
        <time>2015-02-21T12:46:51Z</time>
      </trkpt>
      <trkpt lat="48.74633" lon="2.24254">
        <ele>155</ele>
        <time>2015-02-21T12:47:24Z</time>
      </trkpt>
      <trkpt lat="48.74632" lon="2.24302">
        <ele>156</ele>
        <time>2015-02-21T12:47:50Z</time>
      </trkpt>
      <trkpt lat="48.74625" lon="2.2432">
        <ele>156</ele>
        <time>2015-02-21T12:48:42Z</time>
      </trkpt>
      <trkpt lat="48.74591" lon="2.24359">
        <ele>156</ele>
        <time>2015-02-21T12:49:18Z</time>
      </trkpt>
      <trkpt lat="48.74562" lon="2.24381">
        <ele>155</ele>
        <time>2015-02-21T12:49:57Z</time>
      </trkpt>
      <trkpt lat="48.74557" lon="2.24383">
        <ele>155</ele>
        <time>2015-02-21T12:50:08Z</time>
      </trkpt>
      <trkpt lat="48.74561" lon="2.24376">
        <ele>155</ele>
        <time>2015-02-21T12:52:13Z</time>
      </trkpt>
      <trkpt lat="48.74584" lon="2.24352">
        <ele>155</ele>
        <time>2015-02-21T12:52:41Z</time>
      </trkpt>
      <trkpt lat="48.74589" lon="2.24354">
        <ele>155</ele>
        <time>2015-02-21T12:52:54Z</time>
      </trkpt>
      <trkpt lat="48.74596" lon="2.24357">
        <ele>155</ele>
        <time>2015-02-21T12:54:29Z</time>
      </trkpt>
      <trkpt lat="48.74602" lon="2.24368">
        <ele>156</ele>
        <time>2015-02-21T12:54:45Z</time>
      </trkpt>
      <trkpt lat="48.74605" lon="2.24381">
        <ele>156</ele>
        <time>2015-02-21T12:54:58Z</time>
      </trkpt>
      <trkpt lat="48.74627" lon="2.24408">
        <ele>160</ele>
        <time>2015-02-21T12:55:33Z</time>
      </trkpt>
      <trkpt lat="48.7465" lon="2.24433">
        <ele>161</ele>
        <time>2015-02-21T12:55:59Z</time>
      </trkpt>
      <trkpt lat="48.74675" lon="2.24474">
        <ele>163</ele>
        <time>2015-02-21T12:56:34Z</time>
      </trkpt>
      <trkpt lat="48.7471" lon="2.24501">
        <ele>165</ele>
        <time>2015-02-21T12:57:24Z</time>
      </trkpt>
      <trkpt lat="48.74709" lon="2.24516">
        <ele>165</ele>
        <time>2015-02-21T12:57:32Z</time>
      </trkpt>
      <trkpt lat="48.74707" lon="2.24524">
        <ele>165</ele>
        <time>2015-02-21T12:57:37Z</time>
      </trkpt>
      <trkpt lat="48.74702" lon="2.2453">
        <ele>165</ele>
        <time>2015-02-21T12:57:42Z</time>
      </trkpt>
      <trkpt lat="48.74703" lon="2.24544">
        <ele>165</ele>
        <time>2015-02-21T12:57:48Z</time>
      </trkpt>
      <trkpt lat="48.74708" lon="2.24603">
        <ele>166</ele>
        <time>2015-02-21T12:58:21Z</time>
      </trkpt>
      <trkpt lat="48.74707" lon="2.2461">
        <ele>166</ele>
        <time>2015-02-21T12:58:25Z</time>
      </trkpt>
      <trkpt lat="48.74707" lon="2.24626">
        <ele>166</ele>
        <time>2015-02-21T12:58:33Z</time>
      </trkpt>
      <trkpt lat="48.74715" lon="2.24651">
        <ele>166</ele>
        <time>2015-02-21T12:58:52Z</time>
      </trkpt>
      <trkpt lat="48.74721" lon="2.24708">
        <ele>166</ele>
        <time>2015-02-21T12:59:25Z</time>
      </trkpt>
      <trkpt lat="48.74726" lon="2.24764">
        <ele>167</ele>
        <time>2015-02-21T12:59:57Z</time>
      </trkpt>
      <trkpt lat="48.74726" lon="2.24794">
        <ele>167</ele>
        <time>2015-02-21T13:00:14Z</time>
      </trkpt>
      <trkpt lat="48.74731" lon="2.24808">
        <ele>167</ele>
        <time>2015-02-21T13:00:23Z</time>
      </trkpt>
      <trkpt lat="48.74763" lon="2.24838">
        <ele>167</ele>
        <time>2015-02-21T13:00:55Z</time>
      </trkpt>
      <trkpt lat="48.74794" lon="2.24868">
        <ele>167</ele>
        <time>2015-02-21T13:01:29Z</time>
      </trkpt>
      <trkpt lat="48.74824" lon="2.24905">
        <ele>167</ele>
        <time>2015-02-21T13:02:02Z</time>
      </trkpt>
      <trkpt lat="48.74832" lon="2.24912">
        <ele>167</ele>
        <time>2015-02-21T13:02:09Z</time>
      </trkpt>
      <trkpt lat="48.74837" lon="2.24925">
        <ele>167</ele>
        <time>2015-02-21T13:02:17Z</time>
      </trkpt>
      <trkpt lat="48.74837" lon="2.24935">
        <ele>167</ele>
        <time>2015-02-21T13:02:25Z</time>
      </trkpt>
      <trkpt lat="48.74844" lon="2.24937">
        <ele>167</ele>
        <time>2015-02-21T13:02:58Z</time>
      </trkpt>
      <trkpt lat="48.74858" lon="2.24928">
        <ele>167</ele>
        <time>2015-02-21T13:03:10Z</time>
      </trkpt>
      <trkpt lat="48.74864" lon="2.24919">
        <ele>167</ele>
        <time>2015-02-21T13:03:19Z</time>
      </trkpt>
      <trkpt lat="48.74899" lon="2.24896">
        <ele>167</ele>
        <time>2015-02-21T13:03:53Z</time>
      </trkpt>
      <trkpt lat="48.74905" lon="2.24893">
        <ele>168</ele>
        <time>2015-02-21T13:04:02Z</time>
      </trkpt>
      <trkpt lat="48.74907" lon="2.24886">
        <ele>168</ele>
        <time>2015-02-21T13:04:06Z</time>
      </trkpt>
      <trkpt lat="48.74929" lon="2.24871">
        <ele>168</ele>
        <time>2015-02-21T13:04:32Z</time>
      </trkpt>
      <trkpt lat="48.74934" lon="2.24869">
        <ele>169</ele>
        <time>2015-02-21T13:04:35Z</time>
      </trkpt>
      <trkpt lat="48.7494" lon="2.2487">
        <ele>169</ele>
        <time>2015-02-21T13:04:40Z</time>
      </trkpt>
      <trkpt lat="48.74955" lon="2.24861">
        <ele>169</ele>
        <time>2015-02-21T13:04:53Z</time>
      </trkpt>
      <trkpt lat="48.74968" lon="2.24848">
        <ele>170</ele>
        <time>2015-02-21T13:05:08Z</time>
      </trkpt>
      <trkpt lat="48.75" lon="2.24827">
        <ele>171</ele>
        <time>2015-02-21T13:05:38Z</time>
      </trkpt>
      <trkpt lat="48.75038" lon="2.24804">
        <ele>171</ele>
        <time>2015-02-21T13:06:16Z</time>
      </trkpt>
      <trkpt lat="48.75048" lon="2.24809">
        <ele>171</ele>
        <time>2015-02-21T13:06:26Z</time>
      </trkpt>
      <trkpt lat="48.75073" lon="2.24846">
        <ele>170</ele>
        <time>2015-02-21T13:06:56Z</time>
      </trkpt>
      <trkpt lat="48.75085" lon="2.24861">
        <ele>170</ele>
        <time>2015-02-21T13:07:09Z</time>
      </trkpt>
      <trkpt lat="48.75086" lon="2.24868">
        <ele>170</ele>
        <time>2015-02-21T13:07:14Z</time>
      </trkpt>
      <trkpt lat="48.75098" lon="2.24892">
        <ele>169</ele>
        <time>2015-02-21T13:07:32Z</time>
      </trkpt>
      <trkpt lat="48.75121" lon="2.24931">
        <ele>168</ele>
        <time>2015-02-21T13:08:02Z</time>
      </trkpt>
      <trkpt lat="48.75139" lon="2.24981">
        <ele>167</ele>
        <time>2015-02-21T13:08:33Z</time>
      </trkpt>
      <trkpt lat="48.75142" lon="2.24995">
        <ele>167</ele>
        <time>2015-02-21T13:08:43Z</time>
      </trkpt>
      <trkpt lat="48.75169" lon="2.25037">
        <ele>167</ele>
        <time>2015-02-21T13:09:16Z</time>
      </trkpt>
      <trkpt lat="48.75175" lon="2.25047">
        <ele>167</ele>
        <time>2015-02-21T13:09:24Z</time>
      </trkpt>
      <trkpt lat="48.75177" lon="2.25061">
        <ele>167</ele>
        <time>2015-02-21T13:09:32Z</time>
      </trkpt>
      <trkpt lat="48.75202" lon="2.25106">
        <ele>168</ele>
        <time>2015-02-21T13:10:05Z</time>
      </trkpt>
      <trkpt lat="48.75216" lon="2.25162">
        <ele>168</ele>
        <time>2015-02-21T13:10:40Z</time>
      </trkpt>
      <trkpt lat="48.75226" lon="2.25202">
        <ele>169</ele>
        <time>2015-02-21T13:11:07Z</time>
      </trkpt>
      <trkpt lat="48.75225" lon="2.25244">
        <ele>170</ele>
        <time>2015-02-21T13:11:28Z</time>
      </trkpt>
      <trkpt lat="48.75238" lon="2.253">
        <ele>169</ele>
        <time>2015-02-21T13:12:02Z</time>
      </trkpt>
      <trkpt lat="48.75235" lon="2.25313">
        <ele>169</ele>
        <time>2015-02-21T13:12:09Z</time>
      </trkpt>
      <trkpt lat="48.7524" lon="2.25357">
        <ele>169</ele>
        <time>2015-02-21T13:12:37Z</time>
      </trkpt>
      <trkpt lat="48.75237" lon="2.25362">
        <ele>168</ele>
        <time>2015-02-21T13:12:42Z</time>
      </trkpt>
      <trkpt lat="48.75237" lon="2.2537">
        <ele>168</ele>
        <time>2015-02-21T13:12:46Z</time>
      </trkpt>
      <trkpt lat="48.75238" lon="2.25424">
        <ele>168</ele>
        <time>2015-02-21T13:13:16Z</time>
      </trkpt>
      <trkpt lat="48.75243" lon="2.25469">
        <ele>168</ele>
        <time>2015-02-21T13:13:41Z</time>
      </trkpt>
      <trkpt lat="48.75238" lon="2.25492">
        <ele>168</ele>
        <time>2015-02-21T13:13:53Z</time>
      </trkpt>
      <trkpt lat="48.75243" lon="2.25497">
        <ele>168</ele>
        <time>2015-02-21T13:13:57Z</time>
      </trkpt>
      <trkpt lat="48.75245" lon="2.25503">
        <ele>168</ele>
        <time>2015-02-21T13:14:00Z</time>
      </trkpt>
      <trkpt lat="48.75248" lon="2.25531">
        <ele>168</ele>
        <time>2015-02-21T13:14:14Z</time>
      </trkpt>
      <trkpt lat="48.75242" lon="2.25573">
        <ele>167</ele>
        <time>2015-02-21T13:14:50Z</time>
      </trkpt>
      <trkpt lat="48.75242" lon="2.25588">
        <ele>167</ele>
        <time>2015-02-21T13:14:59Z</time>
      </trkpt>
      <trkpt lat="48.75236" lon="2.25606">
        <ele>167</ele>
        <time>2015-02-21T13:15:20Z</time>
      </trkpt>
      <trkpt lat="48.75232" lon="2.25658">
        <ele>166</ele>
        <time>2015-02-21T13:15:50Z</time>
      </trkpt>
      <trkpt lat="48.7522" lon="2.25721">
        <ele>163</ele>
        <time>2015-02-21T13:16:27Z</time>
      </trkpt>
      <trkpt lat="48.75216" lon="2.25776">
        <ele>162</ele>
        <time>2015-02-21T13:16:59Z</time>
      </trkpt>
      <trkpt lat="48.75224" lon="2.25835">
        <ele>163</ele>
        <time>2015-02-21T13:17:30Z</time>
      </trkpt>
      <trkpt lat="48.75238" lon="2.25846">
        <ele>163</ele>
        <time>2015-02-21T13:17:40Z</time>
      </trkpt>
      <trkpt lat="48.75256" lon="2.25889">
        <ele>164</ele>
        <time>2015-02-21T13:18:11Z</time>
      </trkpt>
      <trkpt lat="48.7526" lon="2.25895">
        <ele>164</ele>
        <time>2015-02-21T13:18:15Z</time>
      </trkpt>
      <trkpt lat="48.75275" lon="2.25914">
        <ele>162</ele>
        <time>2015-02-21T13:18:30Z</time>
      </trkpt>
      <trkpt lat="48.7528" lon="2.25915">
        <ele>162</ele>
        <time>2015-02-21T13:18:35Z</time>
      </trkpt>
      <trkpt lat="48.75291" lon="2.2593">
        <ele>161</ele>
        <time>2015-02-21T13:18:49Z</time>
      </trkpt>
      <trkpt lat="48.75301" lon="2.25965">
        <ele>161</ele>
        <time>2015-02-21T13:19:10Z</time>
      </trkpt>
      <trkpt lat="48.75315" lon="2.25984">
        <ele>160</ele>
        <time>2015-02-21T13:19:23Z</time>
      </trkpt>
      <trkpt lat="48.75321" lon="2.2601">
        <ele>160</ele>
        <time>2015-02-21T13:19:38Z</time>
      </trkpt>
      <trkpt lat="48.75342" lon="2.26056">
        <ele>158</ele>
        <time>2015-02-21T13:20:09Z</time>
      </trkpt>
      <trkpt lat="48.75354" lon="2.26077">
        <ele>157</ele>
        <time>2015-02-21T13:20:23Z</time>
      </trkpt>
      <trkpt lat="48.75371" lon="2.26086">
        <ele>156</ele>
        <time>2015-02-21T13:20:40Z</time>
      </trkpt>
      <trkpt lat="48.75419" lon="2.26095">
        <ele>155</ele>
        <time>2015-02-21T13:21:18Z</time>
      </trkpt>
      <trkpt lat="48.75434" lon="2.26107">
        <ele>155</ele>
        <time>2015-02-21T13:22:23Z</time>
      </trkpt>
      <trkpt lat="48.75438" lon="2.2612">
        <ele>155</ele>
        <time>2015-02-21T13:22:42Z</time>
      </trkpt>
      <trkpt lat="48.75447" lon="2.26123">
        <ele>154</ele>
        <time>2015-02-21T13:22:56Z</time>
      </trkpt>
      <trkpt lat="48.75451" lon="2.26137">
        <ele>153</ele>
        <time>2015-02-21T13:23:11Z</time>
      </trkpt>
      <trkpt lat="48.75454" lon="2.2615">
        <ele>151</ele>
        <time>2015-02-21T13:23:23Z</time>
      </trkpt>
      <trkpt lat="48.75477" lon="2.26191">
        <ele>146</ele>
        <time>2015-02-21T13:23:54Z</time>
      </trkpt>
      <trkpt lat="48.75479" lon="2.26204">
        <ele>145</ele>
        <time>2015-02-21T13:24:06Z</time>
      </trkpt>
      <trkpt lat="48.75492" lon="2.26225">
        <ele>142</ele>
        <time>2015-02-21T13:24:24Z</time>
      </trkpt>
      <trkpt lat="48.75501" lon="2.26231">
        <ele>140</ele>
        <time>2015-02-21T13:24:31Z</time>
      </trkpt>
      <trkpt lat="48.75509" lon="2.26256">
        <ele>136</ele>
        <time>2015-02-21T13:24:55Z</time>
      </trkpt>
      <trkpt lat="48.75514" lon="2.26283">
        <ele>133</ele>
        <time>2015-02-21T13:25:12Z</time>
      </trkpt>
      <trkpt lat="48.75537" lon="2.26307">
        <ele>128</ele>
        <time>2015-02-21T13:25:43Z</time>
      </trkpt>
      <trkpt lat="48.75547" lon="2.2633">
        <ele>123</ele>
        <time>2015-02-21T13:26:07Z</time>
      </trkpt>
      <trkpt lat="48.75549" lon="2.26345">
        <ele>120</ele>
        <time>2015-02-21T13:26:20Z</time>
      </trkpt>
      <trkpt lat="48.75557" lon="2.2635">
        <ele>118</ele>
        <time>2015-02-21T13:26:33Z</time>
      </trkpt>
      <trkpt lat="48.75561" lon="2.26336">
        <ele>118</ele>
        <time>2015-02-21T13:26:42Z</time>
      </trkpt>
      <trkpt lat="48.75569" lon="2.26327">
        <ele>118</ele>
        <time>2015-02-21T13:26:50Z</time>
      </trkpt>
      <trkpt lat="48.75588" lon="2.26323">
        <ele>118</ele>
        <time>2015-02-21T13:27:04Z</time>
      </trkpt>
      <trkpt lat="48.75596" lon="2.26327">
        <ele>118</ele>
        <time>2015-02-21T13:27:17Z</time>
      </trkpt>
      <trkpt lat="48.75618" lon="2.26354">
        <ele>119</ele>
        <time>2015-02-21T13:27:42Z</time>
      </trkpt>
      <trkpt lat="48.75621" lon="2.26371">
        <ele>119</ele>
        <time>2015-02-21T13:28:00Z</time>
      </trkpt>
      <trkpt lat="48.75629" lon="2.26378">
        <ele>121</ele>
        <time>2015-02-21T13:28:09Z</time>
      </trkpt>
      <trkpt lat="48.75654" lon="2.26395">
        <ele>127</ele>
        <time>2015-02-21T13:28:40Z</time>
      </trkpt>
      <trkpt lat="48.75682" lon="2.2641">
        <ele>130</ele>
        <time>2015-02-21T13:29:12Z</time>
      </trkpt>
      <trkpt lat="48.75719" lon="2.26425">
        <ele>132</ele>
        <time>2015-02-21T13:29:43Z</time>
      </trkpt>
      <trkpt lat="48.75757" lon="2.26433">
        <ele>133</ele>
        <time>2015-02-21T13:30:15Z</time>
      </trkpt>
      <trkpt lat="48.75766" lon="2.26432">
        <ele>133</ele>
        <time>2015-02-21T13:30:22Z</time>
      </trkpt>
      <trkpt lat="48.75775" lon="2.2644">
        <ele>134</ele>
        <time>2015-02-21T13:30:30Z</time>
      </trkpt>
      <trkpt lat="48.75781" lon="2.26451">
        <ele>134</ele>
        <time>2015-02-21T13:30:41Z</time>
      </trkpt>
      <trkpt lat="48.75784" lon="2.26471">
        <ele>134</ele>
        <time>2015-02-21T13:30:59Z</time>
      </trkpt>
      <trkpt lat="48.75801" lon="2.26505">
        <ele>134</ele>
        <time>2015-02-21T13:31:25Z</time>
      </trkpt>
      <trkpt lat="48.758" lon="2.2652">
        <ele>134</ele>
        <time>2015-02-21T13:31:35Z</time>
      </trkpt>
      <trkpt lat="48.75795" lon="2.26533">
        <ele>134</ele>
        <time>2015-02-21T13:31:42Z</time>
      </trkpt>
      <trkpt lat="48.75787" lon="2.26543">
        <ele>133</ele>
        <time>2015-02-21T13:31:49Z</time>
      </trkpt>
      <trkpt lat="48.75781" lon="2.26553">
        <ele>132</ele>
        <time>2015-02-21T13:31:57Z</time>
      </trkpt>
      <trkpt lat="48.75779" lon="2.26567">
        <ele>131</ele>
        <time>2015-02-21T13:32:13Z</time>
      </trkpt>
      <trkpt lat="48.75784" lon="2.26579">
        <ele>128</ele>
        <time>2015-02-21T13:32:30Z</time>
      </trkpt>
      <trkpt lat="48.75806" lon="2.26605">
        <ele>120</ele>
        <time>2015-02-21T13:33:09Z</time>
      </trkpt>
      <trkpt lat="48.75814" lon="2.26613">
        <ele>119</ele>
        <time>2015-02-21T13:33:18Z</time>
      </trkpt>
      <trkpt lat="48.75822" lon="2.26618">
        <ele>118</ele>
        <time>2015-02-21T13:33:28Z</time>
      </trkpt>
      <trkpt lat="48.7582" lon="2.26632">
        <ele>117</ele>
        <time>2015-02-21T13:33:38Z</time>
      </trkpt>
      <trkpt lat="48.75818" lon="2.26646">
        <ele>117</ele>
        <time>2015-02-21T13:33:47Z</time>
      </trkpt>
      <trkpt lat="48.75822" lon="2.26705">
        <ele>112</ele>
        <time>2015-02-21T13:34:22Z</time>
      </trkpt>
      <trkpt lat="48.75812" lon="2.26761">
        <ele>109</ele>
        <time>2015-02-21T13:34:55Z</time>
      </trkpt>
      <trkpt lat="48.75807" lon="2.26817">
        <ele>106</ele>
        <time>2015-02-21T13:35:26Z</time>
      </trkpt>
      <trkpt lat="48.75788" lon="2.26868">
        <ele>103</ele>
        <time>2015-02-21T13:35:57Z</time>
      </trkpt>
      <trkpt lat="48.75776" lon="2.26925">
        <ele>102</ele>
        <time>2015-02-21T13:36:29Z</time>
      </trkpt>
      <trkpt lat="48.75776" lon="2.26939">
        <ele>102</ele>
        <time>2015-02-21T13:36:38Z</time>
      </trkpt>
      <trkpt lat="48.75782" lon="2.26946">
        <ele>102</ele>
        <time>2015-02-21T13:36:55Z</time>
      </trkpt>
      <trkpt lat="48.75776" lon="2.26962">
        <ele>102</ele>
        <time>2015-02-21T13:37:55Z</time>
      </trkpt>
      <trkpt lat="48.75769" lon="2.27017">
        <ele>102</ele>
        <time>2015-02-21T13:38:29Z</time>
      </trkpt>
      <trkpt lat="48.75748" lon="2.2706">
        <ele>101</ele>
        <time>2015-02-21T13:38:58Z</time>
      </trkpt>
      <trkpt lat="48.75749" lon="2.27064">
        <ele>101</ele>
        <time>2015-02-21T13:39:11Z</time>
      </trkpt>
      <trkpt lat="48.75749" lon="2.2707">
        <ele>101</ele>
        <time>2015-02-21T13:39:38Z</time>
      </trkpt>
      <trkpt lat="48.75739" lon="2.27077">
        <ele>100</ele>
        <time>2015-02-21T13:40:08Z</time>
      </trkpt>
      <trkpt lat="48.7573" lon="2.27076">
        <ele>100</ele>
        <time>2015-02-21T13:40:16Z</time>
      </trkpt>
      <trkpt lat="48.75695" lon="2.27101">
        <ele>98</ele>
        <time>2015-02-21T13:40:46Z</time>
      </trkpt>
      <trkpt lat="48.75669" lon="2.27137">
        <ele>97</ele>
        <time>2015-02-21T13:41:16Z</time>
      </trkpt>
      <trkpt lat="48.75664" lon="2.27151">
        <ele>97</ele>
        <time>2015-02-21T13:41:24Z</time>
      </trkpt>
      <trkpt lat="48.7566" lon="2.27153">
        <ele>97</ele>
        <time>2015-02-21T13:41:28Z</time>
      </trkpt>
      <trkpt lat="48.75634" lon="2.27191">
        <ele>95</ele>
        <time>2015-02-21T13:41:59Z</time>
      </trkpt>
      <trkpt lat="48.75606" lon="2.27234">
        <ele>93</ele>
        <time>2015-02-21T13:42:32Z</time>
      </trkpt>
      <trkpt lat="48.75596" lon="2.2725">
        <ele>92</ele>
        <time>2015-02-21T13:42:46Z</time>
      </trkpt>
      <trkpt lat="48.75596" lon="2.2728">
        <ele>92</ele>
        <time>2015-02-21T13:43:07Z</time>
      </trkpt>
      <trkpt lat="48.75597" lon="2.27287">
        <ele>91</ele>
        <time>2015-02-21T13:43:11Z</time>
      </trkpt>
      <trkpt lat="48.75601" lon="2.27291">
        <ele>91</ele>
        <time>2015-02-21T13:43:15Z</time>
      </trkpt>
      <trkpt lat="48.75598" lon="2.2729">
        <ele>90</ele>
        <time>2015-02-21T13:43:38Z</time>
      </trkpt>
      <trkpt lat="48.7559" lon="2.27281">
        <ele>90</ele>
        <time>2015-02-21T13:43:52Z</time>
      </trkpt>
      <trkpt lat="48.75578" lon="2.2724">
        <ele>88</ele>
        <time>2015-02-21T13:44:15Z</time>
      </trkpt>
      <trkpt lat="48.7557" lon="2.27241">
        <ele>88</ele>
        <time>2015-02-21T13:44:19Z</time>
      </trkpt>
      <trkpt lat="48.75563" lon="2.27246">
        <ele>88</ele>
        <time>2015-02-21T13:44:23Z</time>
      </trkpt>
      <trkpt lat="48.75562" lon="2.2725">
        <ele>88</ele>
        <time>2015-02-21T13:44:34Z</time>
      </trkpt>
      <trkpt lat="48.75564" lon="2.27252">
        <ele>90</ele>
        <time>2015-02-21T13:45:23Z</time>
      </trkpt>
      <trkpt lat="48.75567" lon="2.27246">
        <ele>90</ele>
        <time>2015-02-21T13:45:32Z</time>
      </trkpt>
      <trkpt lat="48.75608" lon="2.27275">
        <ele>89</ele>
        <time>2015-02-21T13:45:58Z</time>
      </trkpt>
      <trkpt lat="48.75602" lon="2.27285">
        <ele>88</ele>
        <time>2015-02-21T13:46:02Z</time>
      </trkpt>
      <trkpt lat="48.75607" lon="2.27296">
        <ele>88</ele>
        <time>2015-02-21T13:46:12Z</time>
      </trkpt>
      <trkpt lat="48.75603" lon="2.27308">
        <ele>89</ele>
        <time>2015-02-21T13:46:25Z</time>
      </trkpt>
      <trkpt lat="48.75588" lon="2.27329">
        <ele>89</ele>
        <time>2015-02-21T13:46:38Z</time>
      </trkpt>
      <trkpt lat="48.75579" lon="2.27333">
        <ele>89</ele>
        <time>2015-02-21T13:46:46Z</time>
      </trkpt>
      <trkpt lat="48.75568" lon="2.27356">
        <ele>89</ele>
        <time>2015-02-21T13:47:04Z</time>
      </trkpt>
      <trkpt lat="48.75552" lon="2.27409">
        <ele>87</ele>
        <time>2015-02-21T13:47:41Z</time>
      </trkpt>
      <trkpt lat="48.75538" lon="2.27465">
        <ele>87</ele>
        <time>2015-02-21T13:48:19Z</time>
      </trkpt>
      <trkpt lat="48.75532" lon="2.27478">
        <ele>87</ele>
        <time>2015-02-21T13:48:27Z</time>
      </trkpt>
      <trkpt lat="48.75514" lon="2.27487">
        <ele>88</ele>
        <time>2015-02-21T13:48:50Z</time>
      </trkpt>
      <trkpt lat="48.75505" lon="2.27487">
        <ele>88</ele>
        <time>2015-02-21T13:48:58Z</time>
      </trkpt>
      <trkpt lat="48.75482" lon="2.2746">
        <ele>88</ele>
        <time>2015-02-21T13:49:22Z</time>
      </trkpt>
      <trkpt lat="48.75479" lon="2.27447">
        <ele>88</ele>
        <time>2015-02-21T13:49:30Z</time>
      </trkpt>
      <trkpt lat="48.75474" lon="2.27453">
        <ele>87</ele>
        <time>2015-02-21T13:50:55Z</time>
      </trkpt>
      <trkpt lat="48.75469" lon="2.27466">
        <ele>87</ele>
        <time>2015-02-21T13:51:01Z</time>
      </trkpt>
      <trkpt lat="48.75475" lon="2.27476">
        <ele>87</ele>
        <time>2015-02-21T13:51:11Z</time>
      </trkpt>
      <trkpt lat="48.75484" lon="2.27477">
        <ele>87</ele>
        <time>2015-02-21T13:51:19Z</time>
      </trkpt>
      <trkpt lat="48.75492" lon="2.27484">
        <ele>88</ele>
        <time>2015-02-21T13:51:28Z</time>
      </trkpt>
      <trkpt lat="48.75487" lon="2.27497">
        <ele>87</ele>
        <time>2015-02-21T13:51:43Z</time>
      </trkpt>
      <trkpt lat="48.75483" lon="2.27511">
        <ele>85</ele>
        <time>2015-02-21T13:51:50Z</time>
      </trkpt>
      <trkpt lat="48.75476" lon="2.27521">
        <ele>85</ele>
        <time>2015-02-21T13:51:58Z</time>
      </trkpt>
      <trkpt lat="48.75468" lon="2.27547">
        <ele>84</ele>
        <time>2015-02-21T13:52:13Z</time>
      </trkpt>
      <trkpt lat="48.75468" lon="2.27576">
        <ele>83</ele>
        <time>2015-02-21T13:52:34Z</time>
      </trkpt>
      <trkpt lat="48.75473" lon="2.27587">
        <ele>83</ele>
        <time>2015-02-21T13:52:42Z</time>
      </trkpt>
      <trkpt lat="48.75481" lon="2.27597">
        <ele>83</ele>
        <time>2015-02-21T13:52:53Z</time>
      </trkpt>
      <trkpt lat="48.75483" lon="2.2761">
        <ele>84</ele>
        <time>2015-02-21T13:53:03Z</time>
      </trkpt>
      <trkpt lat="48.75483" lon="2.27617">
        <ele>86</ele>
        <time>2015-02-21T13:53:50Z</time>
      </trkpt>
      <trkpt lat="48.75484" lon="2.27636">
        <ele>86</ele>
        <time>2015-02-21T13:54:16Z</time>
      </trkpt>
      <trkpt lat="48.75481" lon="2.27641">
        <ele>86</ele>
        <time>2015-02-21T13:54:21Z</time>
      </trkpt>
      <trkpt lat="48.7548" lon="2.27649">
        <ele>86</ele>
        <time>2015-02-21T13:54:25Z</time>
      </trkpt>
      <trkpt lat="48.75475" lon="2.27654">
        <ele>86</ele>
        <time>2015-02-21T13:54:30Z</time>
      </trkpt>
      <trkpt lat="48.75473" lon="2.2766">
        <ele>86</ele>
        <time>2015-02-21T13:54:35Z</time>
      </trkpt>
      <trkpt lat="48.75465" lon="2.27668">
        <ele>86</ele>
        <time>2015-02-21T13:54:45Z</time>
      </trkpt>
      <trkpt lat="48.75444" lon="2.27714">
        <ele>83</ele>
        <time>2015-02-21T13:55:15Z</time>
      </trkpt>
      <trkpt lat="48.75412" lon="2.27765">
        <ele>81</ele>
        <time>2015-02-21T13:55:49Z</time>
      </trkpt>
      <trkpt lat="48.75412" lon="2.27779">
        <ele>80</ele>
        <time>2015-02-21T13:56:00Z</time>
      </trkpt>
      <trkpt lat="48.75394" lon="2.27849">
        <ele>80</ele>
        <time>2015-02-21T13:56:32Z</time>
      </trkpt>
      <trkpt lat="48.75383" lon="2.27872">
        <ele>80</ele>
        <time>2015-02-21T13:56:47Z</time>
      </trkpt>
      <trkpt lat="48.75381" lon="2.27886">
        <ele>79</ele>
        <time>2015-02-21T13:56:58Z</time>
      </trkpt>
      <trkpt lat="48.75366" lon="2.27941">
        <ele>79</ele>
        <time>2015-02-21T13:57:29Z</time>
      </trkpt>
      <trkpt lat="48.75352" lon="2.2796">
        <ele>79</ele>
        <time>2015-02-21T13:57:46Z</time>
      </trkpt>
      <trkpt lat="48.75329" lon="2.27986">
        <ele>80</ele>
        <time>2015-02-21T13:58:11Z</time>
      </trkpt>
      <trkpt lat="48.75322" lon="2.28011">
        <ele>80</ele>
        <time>2015-02-21T13:58:27Z</time>
      </trkpt>
      <trkpt lat="48.753" lon="2.28039">
        <ele>79</ele>
        <time>2015-02-21T13:58:52Z</time>
      </trkpt>
      <trkpt lat="48.75291" lon="2.28045">
        <ele>79</ele>
        <time>2015-02-21T13:59:04Z</time>
      </trkpt>
      <trkpt lat="48.75264" lon="2.28084">
        <ele>79</ele>
        <time>2015-02-21T13:59:39Z</time>
      </trkpt>
      <trkpt lat="48.75235" lon="2.28118">
        <ele>81</ele>
        <time>2015-02-21T14:00:11Z</time>
      </trkpt>
      <trkpt lat="48.75209" lon="2.28157">
        <ele>82</ele>
        <time>2015-02-21T14:00:44Z</time>
      </trkpt>
      <trkpt lat="48.75203" lon="2.28167">
        <ele>82</ele>
        <time>2015-02-21T14:00:52Z</time>
      </trkpt>
      <trkpt lat="48.7519" lon="2.28182">
        <ele>81</ele>
        <time>2015-02-21T14:01:19Z</time>
      </trkpt>
      <trkpt lat="48.75188" lon="2.28188">
        <ele>81</ele>
        <time>2015-02-21T14:01:58Z</time>
      </trkpt>
      <trkpt lat="48.75191" lon="2.282">
        <ele>81</ele>
        <time>2015-02-21T14:02:22Z</time>
      </trkpt>
      <trkpt lat="48.75207" lon="2.28236">
        <ele>82</ele>
        <time>2015-02-21T14:02:46Z</time>
      </trkpt>
      <trkpt lat="48.75233" lon="2.28253">
        <ele>82</ele>
        <time>2015-02-21T14:03:11Z</time>
      </trkpt>
      <trkpt lat="48.75261" lon="2.28251">
        <ele>83</ele>
        <time>2015-02-21T14:03:41Z</time>
      </trkpt>
      <trkpt lat="48.75306" lon="2.28266">
        <ele>85</ele>
        <time>2015-02-21T14:04:17Z</time>
      </trkpt>
      <trkpt lat="48.75342" lon="2.28283">
        <ele>86</ele>
        <time>2015-02-21T14:04:52Z</time>
      </trkpt>
      <trkpt lat="48.75379" lon="2.28303">
        <ele>87</ele>
        <time>2015-02-21T14:05:27Z</time>
      </trkpt>
      <trkpt lat="48.75423" lon="2.28327">
        <ele>88</ele>
        <time>2015-02-21T14:06:03Z</time>
      </trkpt>
      <trkpt lat="48.7544" lon="2.28341">
        <ele>87</ele>
        <time>2015-02-21T14:06:20Z</time>
      </trkpt>
      <trkpt lat="48.75477" lon="2.2835">
        <ele>88</ele>
        <time>2015-02-21T14:06:55Z</time>
      </trkpt>
      <trkpt lat="48.75486" lon="2.28352">
        <ele>88</ele>
        <time>2015-02-21T14:07:04Z</time>
      </trkpt>
      <trkpt lat="48.75505" lon="2.28358">
        <ele>88</ele>
        <time>2015-02-21T14:07:17Z</time>
      </trkpt>
      <trkpt lat="48.75521" lon="2.28373">
        <ele>87</ele>
        <time>2015-02-21T14:07:33Z</time>
      </trkpt>
      <trkpt lat="48.75531" lon="2.28374">
        <ele>87</ele>
        <time>2015-02-21T14:07:40Z</time>
      </trkpt>
      <trkpt lat="48.75539" lon="2.2837">
        <ele>86</ele>
        <time>2015-02-21T14:07:49Z</time>
      </trkpt>
      <trkpt lat="48.75575" lon="2.28385">
        <ele>88</ele>
        <time>2015-02-21T14:08:21Z</time>
      </trkpt>
      <trkpt lat="48.75593" lon="2.28385">
        <ele>88</ele>
        <time>2015-02-21T14:08:50Z</time>
      </trkpt>
      <trkpt lat="48.75619" lon="2.28404">
        <ele>88</ele>
        <time>2015-02-21T14:09:23Z</time>
      </trkpt>
      <trkpt lat="48.75637" lon="2.28401">
        <ele>89</ele>
        <time>2015-02-21T14:09:41Z</time>
      </trkpt>
      <trkpt lat="48.75664" lon="2.28419">
        <ele>89</ele>
        <time>2015-02-21T14:10:08Z</time>
      </trkpt>
      <trkpt lat="48.75682" lon="2.28431">
        <ele>88</ele>
        <time>2015-02-21T14:10:25Z</time>
      </trkpt>
      <trkpt lat="48.75722" lon="2.28443">
        <ele>89</ele>
        <time>2015-02-21T14:10:58Z</time>
      </trkpt>
      <trkpt lat="48.75761" lon="2.28449">
        <ele>88</ele>
        <time>2015-02-21T14:11:30Z</time>
      </trkpt>
      <trkpt lat="48.75799" lon="2.28458">
        <ele>88</ele>
        <time>2015-02-21T14:12:01Z</time>
      </trkpt>
      <trkpt lat="48.75838" lon="2.28458">
        <ele>90</ele>
        <time>2015-02-21T14:12:32Z</time>
      </trkpt>
      <trkpt lat="48.75886" lon="2.28467">
        <ele>90</ele>
        <time>2015-02-21T14:13:09Z</time>
      </trkpt>
      <trkpt lat="48.75924" lon="2.2846">
        <ele>90</ele>
        <time>2015-02-21T14:13:41Z</time>
      </trkpt>
      <trkpt lat="48.75939" lon="2.28479">
        <ele>90</ele>
        <time>2015-02-21T14:13:56Z</time>
      </trkpt>
      <trkpt lat="48.7594" lon="2.28494">
        <ele>90</ele>
        <time>2015-02-21T14:14:14Z</time>
      </trkpt>
      <trkpt lat="48.75939" lon="2.28511">
        <ele>90</ele>
        <time>2015-02-21T14:14:58Z</time>
      </trkpt>
      <trkpt lat="48.75937" lon="2.28524">
        <ele>90</ele>
        <time>2015-02-21T14:15:05Z</time>
      </trkpt>
      <trkpt lat="48.75939" lon="2.28539">
        <ele>90</ele>
        <time>2015-02-21T14:15:16Z</time>
      </trkpt>
      <trkpt lat="48.75946" lon="2.28548">
        <ele>89</ele>
        <time>2015-02-21T14:15:25Z</time>
      </trkpt>
      <trkpt lat="48.75983" lon="2.28552">
        <ele>89</ele>
        <time>2015-02-21T14:15:58Z</time>
      </trkpt>
      <trkpt lat="48.75993" lon="2.28554">
        <ele>89</ele>
        <time>2015-02-21T14:16:09Z</time>
      </trkpt>
      <trkpt lat="48.76" lon="2.28562">
        <ele>88</ele>
        <time>2015-02-21T14:16:18Z</time>
      </trkpt>
      <trkpt lat="48.76015" lon="2.286">
        <ele>87</ele>
        <time>2015-02-21T14:16:41Z</time>
      </trkpt>
      <trkpt lat="48.76019" lon="2.28643">
        <ele>87</ele>
        <time>2015-02-21T14:17:09Z</time>
      </trkpt>
      <trkpt lat="48.7602" lon="2.28673">
        <ele>88</ele>
        <time>2015-02-21T14:17:25Z</time>
      </trkpt>
      <trkpt lat="48.76017" lon="2.28686">
        <ele>88</ele>
        <time>2015-02-21T14:17:33Z</time>
      </trkpt>
      <trkpt lat="48.76014" lon="2.287">
        <ele>88</ele>
        <time>2015-02-21T14:17:42Z</time>
      </trkpt>
      <trkpt lat="48.76018" lon="2.28713">
        <ele>88</ele>
        <time>2015-02-21T14:17:51Z</time>
      </trkpt>
      <trkpt lat="48.76015" lon="2.28741">
        <ele>87</ele>
        <time>2015-02-21T14:18:07Z</time>
      </trkpt>
      <trkpt lat="48.76005" lon="2.28798">
        <ele>87</ele>
        <time>2015-02-21T14:18:40Z</time>
      </trkpt>
      <trkpt lat="48.76" lon="2.28855">
        <ele>86</ele>
        <time>2015-02-21T14:19:13Z</time>
      </trkpt>
      <trkpt lat="48.75996" lon="2.28913">
        <ele>84</ele>
        <time>2015-02-21T14:19:48Z</time>
      </trkpt>
      <trkpt lat="48.75993" lon="2.28971">
        <ele>84</ele>
        <time>2015-02-21T14:20:22Z</time>
      </trkpt>
      <trkpt lat="48.75991" lon="2.29029">
        <ele>84</ele>
        <time>2015-02-21T14:20:56Z</time>
      </trkpt>
      <trkpt lat="48.75994" lon="2.29042">
        <ele>83</ele>
        <time>2015-02-21T14:21:06Z</time>
      </trkpt>
      <trkpt lat="48.76004" lon="2.29045">
        <ele>83</ele>
        <time>2015-02-21T14:21:15Z</time>
      </trkpt>
      <trkpt lat="48.76014" lon="2.29047">
        <ele>84</ele>
        <time>2015-02-21T14:21:22Z</time>
      </trkpt>
      <trkpt lat="48.76051" lon="2.29056">
        <ele>83</ele>
        <time>2015-02-21T14:21:55Z</time>
      </trkpt>
      <trkpt lat="48.7609" lon="2.29073">
        <ele>81</ele>
        <time>2015-02-21T14:22:27Z</time>
      </trkpt>
      <trkpt lat="48.76095" lon="2.29075">
        <ele>81</ele>
        <time>2015-02-21T14:22:32Z</time>
      </trkpt>
      <trkpt lat="48.76094" lon="2.29082">
        <ele>81</ele>
        <time>2015-02-21T14:22:38Z</time>
      </trkpt>
      <trkpt lat="48.76092" lon="2.29089">
        <ele>81</ele>
        <time>2015-02-21T14:22:43Z</time>
      </trkpt>
      <trkpt lat="48.76095" lon="2.29094">
        <ele>80</ele>
        <time>2015-02-21T14:22:49Z</time>
      </trkpt>
      <trkpt lat="48.76116" lon="2.29101">
        <ele>80</ele>
        <time>2015-02-21T14:23:02Z</time>
      </trkpt>
      <trkpt lat="48.76123" lon="2.2911">
        <ele>79</ele>
        <time>2015-02-21T14:23:11Z</time>
      </trkpt>
      <trkpt lat="48.76127" lon="2.29121">
        <ele>79</ele>
        <time>2015-02-21T14:23:17Z</time>
      </trkpt>
      <trkpt lat="48.76127" lon="2.29129">
        <ele>79</ele>
        <time>2015-02-21T14:23:21Z</time>
      </trkpt>
      <trkpt lat="48.76134" lon="2.29139">
        <ele>79</ele>
        <time>2015-02-21T14:23:30Z</time>
      </trkpt>
      <trkpt lat="48.76146" lon="2.29144">
        <ele>79</ele>
        <time>2015-02-21T14:23:38Z</time>
      </trkpt>
      <trkpt lat="48.76144" lon="2.29153">
        <ele>79</ele>
        <time>2015-02-21T14:23:44Z</time>
      </trkpt>
      <trkpt lat="48.76127" lon="2.29222">
        <ele>78</ele>
        <time>2015-02-21T14:24:22Z</time>
      </trkpt>
      <trkpt lat="48.76118" lon="2.29278">
        <ele>77</ele>
        <time>2015-02-21T14:24:54Z</time>
      </trkpt>
      <trkpt lat="48.76123" lon="2.29306">
        <ele>76</ele>
        <time>2015-02-21T14:25:13Z</time>
      </trkpt>
      <trkpt lat="48.76129" lon="2.29333">
        <ele>76</ele>
        <time>2015-02-21T14:25:28Z</time>
      </trkpt>
      <trkpt lat="48.76124" lon="2.2939">
        <ele>75</ele>
        <time>2015-02-21T14:26:02Z</time>
      </trkpt>
      <trkpt lat="48.76126" lon="2.29463">
        <ele>72</ele>
        <time>2015-02-21T14:26:37Z</time>
      </trkpt>
      <trkpt lat="48.76134" lon="2.29472">
        <ele>72</ele>
        <time>2015-02-21T14:26:44Z</time>
      </trkpt>
      <trkpt lat="48.76139" lon="2.29484">
        <ele>71</ele>
        <time>2015-02-21T14:26:54Z</time>
      </trkpt>
      <trkpt lat="48.76147" lon="2.29489">
        <ele>71</ele>
        <time>2015-02-21T14:27:05Z</time>
      </trkpt>
      <trkpt lat="48.76185" lon="2.29492">
        <ele>69</ele>
        <time>2015-02-21T14:27:37Z</time>
      </trkpt>
      <trkpt lat="48.76206" lon="2.29492">
        <ele>68</ele>
        <time>2015-02-21T14:28:01Z</time>
      </trkpt>
      <trkpt lat="48.76201" lon="2.29503">
        <ele>68</ele>
        <time>2015-02-21T14:28:45Z</time>
      </trkpt>
      <trkpt lat="48.76205" lon="2.29516">
        <ele>68</ele>
        <time>2015-02-21T14:28:54Z</time>
      </trkpt>
      <trkpt lat="48.76206" lon="2.29524">
        <ele>68</ele>
        <time>2015-02-21T14:29:07Z</time>
      </trkpt>
      <trkpt lat="48.76195" lon="2.29523">
        <ele>68</ele>
        <time>2015-02-21T14:29:25Z</time>
      </trkpt>
      <trkpt lat="48.76178" lon="2.29534">
        <ele>68</ele>
        <time>2015-02-21T14:29:47Z</time>
      </trkpt>
      <trkpt lat="48.76177" lon="2.29541">
        <ele>68</ele>
        <time>2015-02-21T14:29:52Z</time>
      </trkpt>
      <trkpt lat="48.7618" lon="2.29556">
        <ele>68</ele>
        <time>2015-02-21T14:30:03Z</time>
      </trkpt>
      <trkpt lat="48.76184" lon="2.29561">
        <ele>68</ele>
        <time>2015-02-21T14:30:08Z</time>
      </trkpt>
      <trkpt lat="48.76183" lon="2.29581">
        <ele>67</ele>
        <time>2015-02-21T14:30:19Z</time>
      </trkpt>
      <trkpt lat="48.76182" lon="2.29595">
        <ele>66</ele>
        <time>2015-02-21T14:30:26Z</time>
      </trkpt>
      <trkpt lat="48.76189" lon="2.29616">
        <ele>66</ele>
        <time>2015-02-21T14:30:38Z</time>
      </trkpt>
      <trkpt lat="48.76189" lon="2.29633">
        <ele>66</ele>
        <time>2015-02-21T14:30:48Z</time>
      </trkpt>
      <trkpt lat="48.76192" lon="2.2964">
        <ele>65</ele>
        <time>2015-02-21T14:30:53Z</time>
      </trkpt>
      <trkpt lat="48.762" lon="2.29693">
        <ele>63</ele>
        <time>2015-02-21T14:31:25Z</time>
      </trkpt>
      <trkpt lat="48.76203" lon="2.29701">
        <ele>63</ele>
        <time>2015-02-21T14:31:30Z</time>
      </trkpt>
      <trkpt lat="48.76208" lon="2.29755">
        <ele>61</ele>
        <time>2015-02-21T14:32:01Z</time>
      </trkpt>
      <trkpt lat="48.76209" lon="2.29787">
        <ele>60</ele>
        <time>2015-02-21T14:32:18Z</time>
      </trkpt>
      <trkpt lat="48.76213" lon="2.29802">
        <ele>60</ele>
        <time>2015-02-21T14:32:27Z</time>
      </trkpt>
      <trkpt lat="48.76213" lon="2.29809">
        <ele>60</ele>
        <time>2015-02-21T14:32:32Z</time>
      </trkpt>
    </trkseg>
  </trk>
</gpx>